Time,TemperatureF,DewpointF,PressureIn,WindDirection,WindDirectionDegrees,WindSpeedMPH,WindSpeedGustMPH,Humidity,HourlyPrecipIn,Conditions,Clouds,dailyrainin,SoftwareType,DateUTC
2013-08-07 00:00:00,76.8,67.9,29.82,SSE,158,0.0,0.0,74,0.00,,CLR,0.00,VWS V14.01,2013-08-07 05:00:00,
2013-08-07 00:02:00,76.8,68.3,29.82,SSE,158,0.0,0.0,75,0.00,,CLR,0.00,VWS V14.01,2013-08-07 05:02:00,
2013-08-07 00:03:00,76.8,68.3,29.82,SSE,158,0.0,0.0,75,0.00,,CLR,0.00,VWS V14.01,2013-08-07 05:03:00,
2013-08-07 00:04:00,76.8,68.3,29.83,SSE,158,0.0,0.0,75,0.00,,CLR,0.00,VWS V14.01,2013-08-07 05:04:00,
2013-08-07 00:05:00,76.8,68.3,29.83,SSE,158,0.0,0.0,75,0.00,,CLR,0.00,VWS V14.01,2013-08-07 05:05:00,
2013-08-07 00:06:00,76.8,68.3,29.83,SSE,158,0.0,0.0,75,0.00,,CLR,0.00,VWS V14.01,2013-08-07 05:06:00,
2013-08-07 00:07:00,76.8,68.3,29.83,SSE,158,0.0,0.0,75,0.00,,CLR,0.00,VWS V14.01,2013-08-07 05:07:00,
2013-08-07 00:08:00,77.0,68.9,29.83,SSE,158,0.0,0.0,76,0.00,,CLR,0.00,VWS V14.01,2013-08-07 05:08:00,
2013-08-07 00:10:00,76.8,68.3,29.83,SSE,158,0.0,0.0,75,0.00,,CLR,0.00,VWS V14.01,2013-08-07 05:10:00,
2013-08-07 00:12:00,76.6,68.1,29.83,SSE,158,0.0,0.0,75,0.00,,CLR,0.00,VWS V14.01,2013-08-07 05:12:00,
2013-08-07 00:14:00,76.6,68.5,29.83,SSE,158,0.0,0.0,76,0.00,,CLR,0.00,VWS V14.01,2013-08-07 05:14:00,
2013-08-07 00:15:00,76.8,68.7,29.82,SSE,158,0.0,0.0,76,0.00,,CLR,0.00,VWS V14.01,2013-08-07 05:15:00,
2013-08-07 00:16:00,76.6,68.5,29.82,SSE,158,0.0,0.0,76,0.00,,CLR,0.00,VWS V14.01,2013-08-07 05:16:00,
2013-08-07 00:18:00,76.6,68.5,29.82,SSE,158,0.0,0.0,76,0.00,,CLR,0.00,VWS V14.01,2013-08-07 05:18:00,
2013-08-07 00:19:00,76.6,68.5,29.83,SSE,158,0.0,0.0,76,0.00,,CLR,0.00,VWS V14.01,2013-08-07 05:19:00,
2013-08-07 00:20:00,76.6,68.5,29.84,SW,225,0.0,0.0,76,0.00,,CLR,0.00,VWS V14.01,2013-08-07 05:20:00,
2013-08-07 00:22:00,76.6,68.5,29.84,SSE,158,0.0,0.0,76,0.00,,CLR,0.00,VWS V14.01,2013-08-07 05:22:00,
2013-08-07 00:24:00,76.4,68.3,29.84,South,180,0.0,0.0,76,0.00,,CLR,0.00,VWS V14.01,2013-08-07 05:24:00,
2013-08-07 00:25:00,76.4,68.3,29.84,South,180,0.0,0.0,76,0.00,,CLR,0.00,VWS V14.01,2013-08-07 05:25:00,
2013-08-07 00:26:00,76.4,68.3,29.84,South,180,0.0,0.0,76,0.00,,CLR,0.00,VWS V14.01,2013-08-07 05:26:00,
2013-08-07 00:27:00,76.4,68.7,29.84,South,180,0.0,0.0,77,0.00,,CLR,0.00,VWS V14.01,2013-08-07 05:27:00,
2013-08-07 00:28:00,76.4,68.3,29.84,South,180,0.0,0.0,76,0.00,,CLR,0.00,VWS V14.01,2013-08-07 05:28:00,
2013-08-07 00:29:00,76.4,68.3,29.84,South,180,0.0,0.0,76,0.00,,CLR,0.00,VWS V14.01,2013-08-07 05:29:00,
2013-08-07 00:30:00,76.4,68.7,29.84,South,180,0.0,0.0,77,0.00,,CLR,0.00,VWS V14.01,2013-08-07 05:30:00,
2013-08-07 00:32:00,76.1,68.4,29.83,SSE,158,0.0,0.0,77,0.00,,CLR,0.00,VWS V14.01,2013-08-07 05:32:00,
2013-08-07 00:34:00,76.2,68.5,29.83,SSE,158,0.0,0.0,77,0.00,,CLR,0.00,VWS V14.01,2013-08-07 05:34:00,
2013-08-07 00:35:00,76.1,68.4,29.83,SSE,158,0.0,0.0,77,0.00,,CLR,0.00,VWS V14.01,2013-08-07 05:35:00,
2013-08-07 00:36:00,76.2,68.5,29.84,SSE,158,0.0,0.0,77,0.00,,CLR,0.00,VWS V14.01,2013-08-07 05:36:00,
2013-08-07 00:37:00,76.2,68.5,29.84,South,180,0.0,0.0,77,0.00,,CLR,0.00,VWS V14.01,2013-08-07 05:37:00,
2013-08-07 00:38:00,76.1,68.4,29.84,South,180,0.0,0.0,77,0.00,,CLR,0.00,VWS V14.01,2013-08-07 05:38:00,
2013-08-07 00:39:00,76.2,68.5,29.84,South,180,0.0,0.0,77,0.00,,CLR,0.00,VWS V14.01,2013-08-07 05:39:00,
2013-08-07 00:40:00,76.2,68.5,29.83,South,180,0.0,0.0,77,0.00,,CLR,0.00,VWS V14.01,2013-08-07 05:40:00,
2013-08-07 00:41:00,76.2,68.5,29.83,South,180,0.0,0.0,77,0.00,,CLR,0.00,VWS V14.01,2013-08-07 05:41:00,
2013-08-07 00:42:00,76.1,68.4,29.83,South,180,0.0,0.0,77,0.00,,CLR,0.00,VWS V14.01,2013-08-07 05:42:00,
2013-08-07 00:44:00,76.1,68.4,29.83,South,180,0.0,0.0,77,0.00,,CLR,0.00,VWS V14.01,2013-08-07 05:44:00,
2013-08-07 00:45:00,76.1,68.4,29.83,South,180,0.0,0.0,77,0.00,,CLR,0.00,VWS V14.01,2013-08-07 05:45:00,
2013-08-07 00:46:00,76.1,68.4,29.83,South,180,0.0,0.0,77,0.00,,CLR,0.00,VWS V14.01,2013-08-07 05:46:00,
2013-08-07 00:48:00,76.1,68.8,29.83,South,180,0.0,0.0,78,0.00,,CLR,0.00,VWS V14.01,2013-08-07 05:48:00,
2013-08-07 00:49:00,76.1,68.4,29.83,South,180,0.0,0.0,77,0.00,,CLR,0.00,VWS V14.01,2013-08-07 05:49:00,
2013-08-07 00:50:00,76.1,68.8,29.83,South,180,0.0,0.0,78,0.00,,CLR,0.00,VWS V14.01,2013-08-07 05:50:00,
2013-08-07 00:51:00,76.1,68.8,29.82,South,180,0.0,0.0,78,0.00,,CLR,0.00,VWS V14.01,2013-08-07 05:51:00,
2013-08-07 00:52:00,76.1,68.8,29.82,South,180,0.0,0.0,78,0.00,,CLR,0.00,VWS V14.01,2013-08-07 05:52:00,
2013-08-07 00:54:00,76.1,68.8,29.81,SSE,158,0.0,0.0,78,0.00,,CLR,0.00,VWS V14.01,2013-08-07 05:54:00,
2013-08-07 00:55:00,76.1,69.1,29.81,SSE,158,0.0,0.0,79,0.00,,CLR,0.00,VWS V14.01,2013-08-07 05:55:00,
2013-08-07 00:56:00,75.9,68.6,29.81,SSE,158,0.0,0.0,78,0.00,,CLR,0.00,VWS V14.01,2013-08-07 05:56:00,
2013-08-07 00:58:00,76.1,68.8,29.81,South,180,0.0,0.0,78,0.00,,CLR,0.00,VWS V14.01,2013-08-07 05:58:00,
2013-08-07 00:59:00,75.9,68.6,29.81,South,180,0.0,0.0,78,0.00,,CLR,0.00,VWS V14.01,2013-08-07 05:59:00,
2013-08-07 01:00:00,76.1,69.1,29.81,South,180,0.0,0.0,79,0.00,,CLR,0.00,VWS V14.01,2013-08-07 06:00:00,
2013-08-07 01:01:00,76.1,69.1,29.81,South,180,0.0,0.0,79,0.00,,CLR,0.00,VWS V14.01,2013-08-07 06:01:00,
2013-08-07 01:02:00,75.9,68.6,29.81,South,180,0.0,0.0,78,0.00,,CLR,0.00,VWS V14.01,2013-08-07 06:02:00,
2013-08-07 01:03:00,75.9,68.9,29.81,South,180,0.0,0.0,79,0.00,,CLR,0.00,VWS V14.01,2013-08-07 06:03:00,
2013-08-07 01:04:00,75.9,68.6,29.81,South,180,0.0,0.0,78,0.00,,CLR,0.00,VWS V14.01,2013-08-07 06:04:00,
2013-08-07 01:05:00,75.9,68.9,29.81,South,180,0.0,0.0,79,0.00,,CLR,0.00,VWS V14.01,2013-08-07 06:05:00,
2013-08-07 01:06:00,76.1,69.1,29.82,South,180,0.0,0.0,79,0.00,,CLR,0.00,VWS V14.01,2013-08-07 06:06:00,
2013-08-07 01:08:00,75.9,68.9,29.82,South,180,0.0,0.0,79,0.00,,CLR,0.00,VWS V14.01,2013-08-07 06:08:00,
2013-08-07 01:10:00,75.9,68.9,29.82,South,180,0.0,0.0,79,0.00,,CLR,0.00,VWS V14.01,2013-08-07 06:10:00,
2013-08-07 01:11:00,75.9,68.9,29.82,South,180,0.0,0.0,79,0.00,,CLR,0.00,VWS V14.01,2013-08-07 06:11:00,
2013-08-07 01:12:00,75.9,68.9,29.82,South,180,0.0,0.0,79,0.00,,CLR,0.00,VWS V14.01,2013-08-07 06:12:00,
2013-08-07 01:13:00,75.9,68.9,29.82,South,180,0.0,0.0,79,0.00,,CLR,0.00,VWS V14.01,2013-08-07 06:13:00,
2013-08-07 01:14:00,75.9,68.9,29.82,South,180,0.0,0.0,79,0.00,,CLR,0.00,VWS V14.01,2013-08-07 06:14:00,
2013-08-07 01:15:00,75.9,68.9,29.82,North,0,0.0,0.0,79,0.00,,CLR,0.00,VWS V14.01,2013-08-07 06:15:00,
2013-08-07 01:16:00,75.7,68.7,29.82,South,180,0.0,0.0,79,0.00,,CLR,0.00,VWS V14.01,2013-08-07 06:16:00,
2013-08-07 01:18:00,75.7,68.7,29.82,South,180,0.0,0.0,79,0.00,,CLR,0.00,VWS V14.01,2013-08-07 06:18:00,
2013-08-07 01:20:00,75.7,68.7,29.82,South,180,0.0,0.0,79,0.00,,CLR,0.00,VWS V14.01,2013-08-07 06:20:00,
2013-08-07 01:22:00,75.5,68.5,29.82,South,180,0.0,0.0,79,0.00,,CLR,0.00,VWS V14.01,2013-08-07 06:22:00,
2013-08-07 01:23:00,75.5,68.5,29.83,South,180,0.0,0.0,79,0.00,,CLR,0.00,VWS V14.01,2013-08-07 06:23:00,
2013-08-07 01:24:00,75.5,68.5,29.83,South,180,0.0,0.0,79,0.00,,CLR,0.00,VWS V14.01,2013-08-07 06:24:00,
2013-08-07 01:25:00,75.5,68.9,29.83,South,180,0.0,0.0,80,0.00,,CLR,0.00,VWS V14.01,2013-08-07 06:25:00,
2013-08-07 01:26:00,75.5,68.5,29.83,South,180,0.0,0.0,79,0.00,,CLR,0.00,VWS V14.01,2013-08-07 06:26:00,
2013-08-07 01:28:00,75.5,68.9,29.83,South,180,0.0,0.0,80,0.00,,CLR,0.00,VWS V14.01,2013-08-07 06:28:00,
2013-08-07 01:30:00,75.3,68.7,29.83,South,180,0.0,0.0,80,0.00,,CLR,0.00,VWS V14.01,2013-08-07 06:30:00,
2013-08-07 01:31:00,75.3,68.7,29.83,South,180,0.0,0.0,80,0.00,,CLR,0.00,VWS V14.01,2013-08-07 06:31:00,
2013-08-07 01:32:00,75.3,68.7,29.83,South,180,0.0,0.0,80,0.00,,CLR,0.00,VWS V14.01,2013-08-07 06:32:00,
2013-08-07 01:34:00,75.3,68.7,29.83,SSE,158,0.0,0.0,80,0.00,,CLR,0.00,VWS V14.01,2013-08-07 06:34:00,
2013-08-07 01:35:00,75.3,68.7,29.83,South,180,0.0,0.0,80,0.00,,CLR,0.00,VWS V14.01,2013-08-07 06:35:00,
2013-08-07 01:36:00,75.3,68.7,29.83,South,180,0.0,0.0,80,0.00,,CLR,0.00,VWS V14.01,2013-08-07 06:36:00,
2013-08-07 01:37:00,75.3,68.7,29.83,South,180,0.0,0.0,80,0.00,,CLR,0.00,VWS V14.01,2013-08-07 06:37:00,
2013-08-07 01:38:00,75.3,68.7,29.83,South,180,0.0,0.0,80,0.00,,CLR,0.00,VWS V14.01,2013-08-07 06:38:00,
2013-08-07 01:39:00,75.3,68.7,29.83,South,180,0.0,0.0,80,0.00,,CLR,0.00,VWS V14.01,2013-08-07 06:39:00,
2013-08-07 01:40:00,75.2,68.6,29.83,South,180,0.0,0.0,80,0.00,,CLR,0.00,VWS V14.01,2013-08-07 06:40:00,
2013-08-07 01:42:00,75.2,68.6,29.83,SSE,158,0.0,0.0,80,0.00,,CLR,0.00,VWS V14.01,2013-08-07 06:42:00,
2013-08-07 01:44:00,75.3,68.7,29.82,SSE,158,0.0,0.0,80,0.00,,CLR,0.00,VWS V14.01,2013-08-07 06:44:00,
2013-08-07 01:46:00,75.2,68.6,29.82,SSE,158,0.0,0.0,80,0.00,,CLR,0.00,VWS V14.01,2013-08-07 06:46:00,
2013-08-07 01:47:00,75.3,68.7,29.82,SSE,158,0.0,0.0,80,0.00,,CLR,0.00,VWS V14.01,2013-08-07 06:47:00,
2013-08-07 01:48:00,75.2,68.6,29.82,SSE,158,0.0,0.0,80,0.00,,CLR,0.00,VWS V14.01,2013-08-07 06:48:00,
2013-08-07 01:49:00,75.0,68.4,29.83,SSE,158,0.0,0.0,80,0.00,,CLR,0.00,VWS V14.01,2013-08-07 06:49:00,
2013-08-07 01:50:00,75.2,69.0,29.82,SSE,158,0.0,0.0,81,0.00,,CLR,0.00,VWS V14.01,2013-08-07 06:50:00,
2013-08-07 01:52:00,75.2,68.6,29.83,South,180,0.0,0.0,80,0.00,,CLR,0.00,VWS V14.01,2013-08-07 06:52:00,
2013-08-07 01:53:00,75.2,69.0,29.83,South,180,0.0,0.0,81,0.00,,CLR,0.00,VWS V14.01,2013-08-07 06:53:00,
2013-08-07 01:54:00,75.2,69.0,29.83,WNW,292,0.0,0.0,81,0.00,,CLR,0.00,VWS V14.01,2013-08-07 06:54:00,
2013-08-07 01:55:00,75.2,69.0,29.83,WNW,292,0.0,0.0,81,0.00,,CLR,0.00,VWS V14.01,2013-08-07 06:55:00,
2013-08-07 01:56:00,75.3,69.1,29.83,WNW,292,0.0,0.0,81,0.00,,CLR,0.00,VWS V14.01,2013-08-07 06:56:00,
2013-08-07 01:57:00,75.2,69.0,29.83,WNW,292,0.0,0.0,81,0.00,,CLR,0.00,VWS V14.01,2013-08-07 06:57:00,
2013-08-07 01:58:00,75.3,69.1,29.83,WNW,292,0.0,0.0,81,0.00,,CLR,0.00,VWS V14.01,2013-08-07 06:58:00,
2013-08-07 02:00:00,75.2,69.0,29.83,WNW,292,0.0,0.0,81,0.00,,CLR,0.00,VWS V14.01,2013-08-07 07:00:00,
2013-08-07 02:01:00,75.2,69.0,29.83,WNW,292,0.0,0.0,81,0.00,,CLR,0.00,VWS V14.01,2013-08-07 07:01:00,
2013-08-07 02:02:00,75.3,69.1,29.83,WNW,292,0.0,0.0,81,0.00,,CLR,0.00,VWS V14.01,2013-08-07 07:02:00,
2013-08-07 02:03:00,75.3,69.1,29.83,WNW,292,0.0,0.0,81,0.00,,CLR,0.00,VWS V14.01,2013-08-07 07:03:00,
2013-08-07 02:04:00,75.0,68.8,29.83,WNW,292,0.0,0.0,81,0.00,,CLR,0.00,VWS V14.01,2013-08-07 07:04:00,
2013-08-07 02:06:00,75.0,68.8,29.83,WNW,292,0.0,0.0,81,0.00,,CLR,0.00,VWS V14.01,2013-08-07 07:06:00,
2013-08-07 02:08:00,75.0,68.8,29.83,WNW,292,0.0,0.0,81,0.00,,CLR,0.00,VWS V14.01,2013-08-07 07:08:00,
2013-08-07 02:10:00,75.0,68.8,29.83,WNW,292,0.0,0.0,81,0.00,,CLR,0.00,VWS V14.01,2013-08-07 07:10:00,
2013-08-07 02:12:00,75.0,68.8,29.83,WNW,292,0.0,0.0,81,0.00,,CLR,0.00,VWS V14.01,2013-08-07 07:12:00,
2013-08-07 02:14:00,75.0,68.8,29.83,WNW,292,0.0,0.0,81,0.00,,CLR,0.00,VWS V14.01,2013-08-07 07:14:00,
2013-08-07 02:15:00,75.0,68.8,29.83,WNW,292,0.0,0.0,81,0.00,,CLR,0.00,VWS V14.01,2013-08-07 07:15:00,
2013-08-07 02:16:00,74.8,68.6,29.83,WNW,292,0.0,0.0,81,0.00,,CLR,0.00,VWS V14.01,2013-08-07 07:16:00,
2013-08-07 02:18:00,74.8,68.6,29.82,South,180,0.0,0.0,81,0.00,,CLR,0.00,VWS V14.01,2013-08-07 07:18:00,
2013-08-07 02:20:00,74.8,68.6,29.83,South,180,0.0,0.0,81,0.00,,CLR,0.00,VWS V14.01,2013-08-07 07:20:00,
2013-08-07 02:22:00,75.0,68.8,29.83,South,180,0.0,0.0,81,0.00,,CLR,0.00,VWS V14.01,2013-08-07 07:22:00,
2013-08-07 02:24:00,75.0,68.8,29.83,South,180,0.0,0.0,81,0.00,,CLR,0.00,VWS V14.01,2013-08-07 07:24:00,
2013-08-07 02:25:00,74.8,68.6,29.83,South,180,0.0,0.0,81,0.00,,CLR,0.00,VWS V14.01,2013-08-07 07:25:00,
2013-08-07 02:26:00,74.8,68.6,29.82,South,180,0.0,0.0,81,0.00,,CLR,0.00,VWS V14.01,2013-08-07 07:26:00,
2013-08-07 02:28:00,74.8,68.6,29.83,South,180,0.0,0.0,81,0.00,,CLR,0.00,VWS V14.01,2013-08-07 07:28:00,
2013-08-07 02:30:00,74.8,68.6,29.83,South,180,0.0,0.0,81,0.00,,CLR,0.00,VWS V14.01,2013-08-07 07:30:00,
2013-08-07 02:32:00,74.8,68.6,29.83,South,180,0.0,0.0,81,0.00,,CLR,0.00,VWS V14.01,2013-08-07 07:32:00,
2013-08-07 02:34:00,74.8,68.6,29.83,South,180,0.0,0.0,81,0.00,,CLR,0.00,VWS V14.01,2013-08-07 07:34:00,
2013-08-07 02:35:00,74.8,68.6,29.83,South,180,0.0,0.0,81,0.00,,CLR,0.00,VWS V14.01,2013-08-07 07:35:00,
2013-08-07 02:36:00,74.8,68.6,29.83,South,180,0.0,0.0,81,0.00,,CLR,0.00,VWS V14.01,2013-08-07 07:36:00,
2013-08-07 02:37:00,74.8,68.6,29.83,South,180,0.0,0.0,81,0.00,,CLR,0.00,VWS V14.01,2013-08-07 07:37:00,
2013-08-07 02:38:00,74.8,68.6,29.83,South,180,0.0,0.0,81,0.00,,CLR,0.00,VWS V14.01,2013-08-07 07:38:00,
2013-08-07 02:40:00,74.8,68.6,29.83,South,180,0.0,0.0,81,0.00,,CLR,0.00,VWS V14.01,2013-08-07 07:40:00,
2013-08-07 02:42:00,74.8,68.6,29.83,South,180,0.0,0.0,81,0.00,,CLR,0.00,VWS V14.01,2013-08-07 07:42:00,
2013-08-07 02:43:00,74.8,68.6,29.83,South,180,0.0,0.0,81,0.00,,CLR,0.00,VWS V14.01,2013-08-07 07:43:00,
2013-08-07 02:44:00,74.8,68.9,29.83,SSE,158,0.0,0.0,82,0.00,,CLR,0.00,VWS V14.01,2013-08-07 07:44:00,
2013-08-07 02:46:00,74.8,68.9,29.81,SSE,158,0.0,0.0,82,0.00,,CLR,0.00,VWS V14.01,2013-08-07 07:46:00,
2013-08-07 02:47:00,74.8,68.9,29.81,SSE,158,0.0,0.0,82,0.00,,CLR,0.00,VWS V14.01,2013-08-07 07:47:00,
2013-08-07 02:48:00,74.8,68.9,29.81,SSE,158,0.0,0.0,82,0.00,,CLR,0.00,VWS V14.01,2013-08-07 07:48:00,
2013-08-07 02:50:00,74.8,68.9,29.81,SSE,158,0.0,0.0,82,0.00,,CLR,0.00,VWS V14.01,2013-08-07 07:50:00,
2013-08-07 02:51:00,74.8,68.9,29.81,SSE,158,0.0,0.0,82,0.00,,CLR,0.00,VWS V14.01,2013-08-07 07:51:00,
2013-08-07 02:52:00,74.8,68.9,29.81,SSE,158,0.0,0.0,82,0.00,,CLR,0.00,VWS V14.01,2013-08-07 07:52:00,
2013-08-07 02:53:00,75.0,69.1,29.82,SSE,158,0.0,0.0,82,0.00,,CLR,0.00,VWS V14.01,2013-08-07 07:53:00,
2013-08-07 02:54:00,74.8,68.9,29.81,SSE,158,0.0,0.0,82,0.00,,CLR,0.00,VWS V14.01,2013-08-07 07:54:00,
2013-08-07 02:56:00,74.8,68.9,29.81,SSE,158,0.0,0.0,82,0.00,,CLR,0.00,VWS V14.01,2013-08-07 07:56:00,
2013-08-07 02:58:00,74.8,68.9,29.82,SSE,158,0.0,0.0,82,0.00,,CLR,0.00,VWS V14.01,2013-08-07 07:58:00,
2013-08-07 02:59:00,74.8,68.9,29.81,SSE,158,0.0,0.0,82,0.00,,CLR,0.00,VWS V14.01,2013-08-07 07:59:00,
2013-08-07 03:00:00,74.8,68.9,29.81,SSE,158,0.0,0.0,82,0.00,,CLR,0.00,VWS V14.01,2013-08-07 08:00:00,
2013-08-07 03:02:00,74.8,68.9,29.81,SSE,158,0.0,0.0,82,0.00,,CLR,0.00,VWS V14.01,2013-08-07 08:02:00,
2013-08-07 03:04:00,74.8,68.9,29.81,SSE,158,0.0,0.0,82,0.00,,CLR,0.00,VWS V14.01,2013-08-07 08:04:00,
2013-08-07 03:06:00,74.8,68.9,29.81,SSE,158,0.0,0.0,82,0.00,,CLR,0.00,VWS V14.01,2013-08-07 08:06:00,
2013-08-07 03:07:00,74.8,68.9,29.81,SSE,158,0.0,0.0,82,0.00,,CLR,0.00,VWS V14.01,2013-08-07 08:07:00,
2013-08-07 03:08:00,74.8,68.9,29.82,SSE,158,0.0,0.0,82,0.00,,CLR,0.00,VWS V14.01,2013-08-07 08:08:00,
2013-08-07 03:10:00,74.6,68.8,29.81,SSE,158,0.0,0.0,82,0.00,,CLR,0.00,VWS V14.01,2013-08-07 08:10:00,
2013-08-07 03:11:00,74.6,68.8,29.81,SSE,158,0.0,0.0,82,0.00,,CLR,0.00,VWS V14.01,2013-08-07 08:11:00,
2013-08-07 03:12:00,74.6,68.8,29.82,SSE,158,0.0,0.0,82,0.00,,CLR,0.00,VWS V14.01,2013-08-07 08:12:00,
2013-08-07 03:14:00,74.6,68.8,29.81,SSE,158,0.0,0.0,82,0.00,,CLR,0.00,VWS V14.01,2013-08-07 08:14:00,
2013-08-07 03:15:00,74.8,68.9,29.81,SSE,158,0.0,0.0,82,0.00,,CLR,0.00,VWS V14.01,2013-08-07 08:15:00,
2013-08-07 03:16:00,74.6,68.8,29.81,SSE,158,0.0,0.0,82,0.00,,CLR,0.00,VWS V14.01,2013-08-07 08:16:00,
2013-08-07 03:17:00,74.6,68.8,29.81,SSE,158,0.0,0.0,82,0.00,,CLR,0.00,VWS V14.01,2013-08-07 08:17:00,
2013-08-07 03:18:00,74.6,68.8,29.81,SSE,158,0.0,0.0,82,0.00,,CLR,0.00,VWS V14.01,2013-08-07 08:18:00,
2013-08-07 03:20:00,74.6,68.8,29.81,SSE,158,0.0,0.0,82,0.00,,CLR,0.00,VWS V14.01,2013-08-07 08:20:00,
2013-08-07 03:22:00,74.6,68.8,29.81,SSE,158,0.0,0.0,82,0.00,,CLR,0.00,VWS V14.01,2013-08-07 08:22:00,
2013-08-07 03:23:00,74.6,68.8,29.81,SSE,158,0.0,0.0,82,0.00,,CLR,0.00,VWS V14.01,2013-08-07 08:23:00,
2013-08-07 03:24:00,74.6,68.8,29.80,SSE,158,0.0,0.0,82,0.00,,CLR,0.00,VWS V14.01,2013-08-07 08:24:00,
2013-08-07 03:26:00,74.4,68.6,29.81,SSE,158,0.0,0.0,82,0.00,,CLR,0.00,VWS V14.01,2013-08-07 08:26:00,
2013-08-07 03:28:00,74.4,68.6,29.81,SSE,158,0.0,0.0,82,0.00,,CLR,0.00,VWS V14.01,2013-08-07 08:28:00,
2013-08-07 03:29:00,74.4,68.6,29.81,SSE,158,0.0,0.0,82,0.00,,CLR,0.00,VWS V14.01,2013-08-07 08:29:00,
2013-08-07 03:30:00,74.4,68.6,29.81,SSE,158,0.0,0.0,82,0.00,,CLR,0.00,VWS V14.01,2013-08-07 08:30:00,
2013-08-07 03:32:00,74.4,68.6,29.81,SSE,158,0.0,0.0,82,0.00,,CLR,0.00,VWS V14.01,2013-08-07 08:32:00,
2013-08-07 03:33:00,74.4,68.6,29.81,SSE,158,0.0,0.0,82,0.00,,CLR,0.00,VWS V14.01,2013-08-07 08:33:00,
2013-08-07 03:34:00,74.4,68.6,29.81,SSE,158,0.0,0.0,82,0.00,,CLR,0.00,VWS V14.01,2013-08-07 08:34:00,
2013-08-07 03:36:00,74.4,68.6,29.81,SSE,158,0.0,0.0,82,0.00,,CLR,0.00,VWS V14.01,2013-08-07 08:36:00,
2013-08-07 03:38:00,74.3,68.4,29.81,SSE,158,0.0,0.0,82,0.00,,CLR,0.00,VWS V14.01,2013-08-07 08:38:00,
2013-08-07 03:40:00,74.1,68.6,29.81,SSE,158,0.0,0.0,83,0.00,,FEW060,0.00,VWS V14.01,2013-08-07 08:40:00,
2013-08-07 03:42:00,74.1,68.6,29.81,SSE,158,0.0,0.0,83,0.00,,FEW060,0.00,VWS V14.01,2013-08-07 08:42:00,
2013-08-07 03:44:00,74.1,69.0,29.81,SSE,158,0.0,0.0,84,0.00,,FEW060,0.00,VWS V14.01,2013-08-07 08:44:00,
2013-08-07 03:46:00,74.1,69.0,29.81,SSE,158,0.0,0.0,84,0.00,,FEW060,0.00,VWS V14.01,2013-08-07 08:46:00,
2013-08-07 03:47:00,74.1,69.0,29.81,SSE,158,0.0,0.0,84,0.00,,FEW060,0.00,VWS V14.01,2013-08-07 08:47:00,
2013-08-07 03:48:00,74.1,69.0,29.81,SSE,158,0.0,0.0,84,0.00,,CLR,0.00,VWS V14.01,2013-08-07 08:48:00,
2013-08-07 03:49:00,74.1,69.0,29.81,SSE,158,0.0,0.0,84,0.00,,FEW060,0.00,VWS V14.01,2013-08-07 08:49:00,
2013-08-07 03:50:00,74.1,69.0,29.81,SSE,158,0.0,0.0,84,0.00,,FEW060,0.00,VWS V14.01,2013-08-07 08:50:00,
2013-08-07 03:52:00,73.9,68.8,29.81,SSE,158,0.0,0.0,84,0.00,,FEW060,0.00,VWS V14.01,2013-08-07 08:52:00,
2013-08-07 03:54:00,73.9,68.8,29.81,SSE,158,0.0,0.0,84,0.00,,FEW060,0.00,VWS V14.01,2013-08-07 08:54:00,
2013-08-07 03:55:00,73.9,68.8,29.81,SSE,158,0.0,0.0,84,0.00,,FEW060,0.00,VWS V14.01,2013-08-07 08:55:00,
2013-08-07 03:56:00,73.9,68.8,29.81,SSE,158,0.0,0.0,84,0.00,,FEW060,0.00,VWS V14.01,2013-08-07 08:56:00,
2013-08-07 03:58:00,73.7,68.6,29.81,SSE,158,0.0,0.0,84,0.00,,FEW060,0.00,VWS V14.01,2013-08-07 08:58:00,
2013-08-07 04:00:00,73.7,68.9,29.80,SSE,158,0.0,0.0,85,0.00,,FEW060,0.00,VWS V14.01,2013-08-07 09:00:00,
2013-08-07 04:02:00,73.7,68.9,29.80,SSE,158,0.0,0.0,85,0.00,,FEW060,0.00,VWS V14.01,2013-08-07 09:02:00,
2013-08-07 04:04:00,73.7,68.9,29.80,SSE,158,0.0,0.0,85,0.00,,FEW060,0.00,VWS V14.01,2013-08-07 09:04:00,
2013-08-07 04:05:00,73.7,68.9,29.80,SSE,158,0.0,0.0,85,0.00,,FEW060,0.00,VWS V14.01,2013-08-07 09:05:00,
2013-08-07 04:06:00,73.7,68.9,29.80,SSE,158,0.0,0.0,85,0.00,,CLR,0.00,VWS V14.01,2013-08-07 09:06:00,
2013-08-07 04:08:00,73.7,68.9,29.80,SSE,158,0.0,0.0,85,0.00,,FEW060,0.00,VWS V14.01,2013-08-07 09:08:00,
2013-08-07 04:09:00,73.7,68.9,29.80,SSE,158,0.0,0.0,85,0.00,,FEW060,0.00,VWS V14.01,2013-08-07 09:09:00,
2013-08-07 04:10:00,73.5,68.7,29.80,SSE,158,0.0,0.0,85,0.00,,FEW060,0.00,VWS V14.01,2013-08-07 09:10:00,
2013-08-07 04:11:00,73.7,68.9,29.80,SSE,158,0.0,0.0,85,0.00,,FEW060,0.00,VWS V14.01,2013-08-07 09:11:00,
2013-08-07 04:12:00,73.7,68.9,29.80,SSE,158,0.0,0.0,85,0.00,,FEW060,0.00,VWS V14.01,2013-08-07 09:12:00,
2013-08-07 04:14:00,73.7,68.9,29.80,SSE,158,0.0,0.0,85,0.00,,CLR,0.00,VWS V14.01,2013-08-07 09:14:00,
2013-08-07 04:15:00,73.5,68.7,29.80,SSE,158,0.0,0.0,85,0.00,,FEW060,0.00,VWS V14.01,2013-08-07 09:15:00,
2013-08-07 04:16:00,73.5,68.7,29.80,SSE,158,0.0,0.0,85,0.00,,CLR,0.00,VWS V14.01,2013-08-07 09:16:00,
2013-08-07 04:17:00,73.4,68.6,29.80,SSE,158,0.0,0.0,85,0.00,,FEW060,0.00,VWS V14.01,2013-08-07 09:17:00,
2013-08-07 04:18:00,73.5,68.7,29.80,SSE,158,0.0,0.0,85,0.00,,FEW060,0.00,VWS V14.01,2013-08-07 09:18:00,
2013-08-07 04:20:00,73.4,68.6,29.80,SSE,158,0.0,0.0,85,0.00,,FEW060,0.00,VWS V14.01,2013-08-07 09:20:00,
2013-08-07 04:22:00,73.5,68.7,29.80,SSE,158,0.0,0.0,85,0.00,,CLR,0.00,VWS V14.01,2013-08-07 09:22:00,
2013-08-07 04:23:00,73.5,68.7,29.80,SSE,158,0.0,0.0,85,0.00,,FEW060,0.00,VWS V14.01,2013-08-07 09:23:00,
2013-08-07 04:24:00,73.5,68.7,29.80,SSE,158,0.0,0.0,85,0.00,,FEW060,0.00,VWS V14.01,2013-08-07 09:24:00,
2013-08-07 04:26:00,73.4,68.6,29.80,SSE,158,0.0,0.0,85,0.00,,FEW060,0.00,VWS V14.01,2013-08-07 09:26:00,
2013-08-07 04:28:00,73.4,68.6,29.80,SSE,158,0.0,0.0,85,0.00,,FEW060,0.00,VWS V14.01,2013-08-07 09:28:00,
2013-08-07 04:30:00,73.4,69.0,29.80,SSE,158,0.0,0.0,86,0.00,,FEW060,0.00,VWS V14.01,2013-08-07 09:30:00,
2013-08-07 04:32:00,73.2,68.4,29.80,SSE,158,0.0,0.0,85,0.00,,FEW060,0.00,VWS V14.01,2013-08-07 09:32:00,
2013-08-07 04:34:00,73.2,68.8,29.81,SSE,158,0.0,0.0,86,0.00,,FEW060,0.00,VWS V14.01,2013-08-07 09:34:00,
2013-08-07 04:36:00,73.0,68.6,29.80,SSE,158,0.0,0.0,86,0.00,,FEW060,0.00,VWS V14.01,2013-08-07 09:36:00,
2013-08-07 04:38:00,73.0,68.2,29.80,SSE,158,0.0,0.0,85,0.00,,FEW060,0.00,VWS V14.01,2013-08-07 09:38:00,
2013-08-07 04:39:00,73.0,68.6,29.80,SSE,158,0.0,0.0,86,0.00,,-RA,0.00,VWS V14.01,2013-08-07 09:39:00,
2013-08-07 04:40:00,73.0,68.6,29.80,SSE,158,0.0,0.0,86,0.00,,CLR,0.00,VWS V14.01,2013-08-07 09:40:00,
2013-08-07 04:42:00,73.0,68.2,29.80,SSE,158,0.0,0.0,85,0.00,,CLR,0.00,VWS V14.01,2013-08-07 09:42:00,
2013-08-07 04:43:00,73.0,68.6,29.80,SSE,158,0.0,0.0,86,0.00,,-RA,0.00,VWS V14.01,2013-08-07 09:43:00,
2013-08-07 04:44:00,73.0,68.6,29.80,SSE,158,0.0,0.0,86,0.00,,-RA,0.00,VWS V14.01,2013-08-07 09:44:00,
2013-08-07 04:46:00,73.0,68.6,29.81,SSE,158,0.0,0.0,86,0.00,,CLR,0.00,VWS V14.01,2013-08-07 09:46:00,
2013-08-07 04:48:00,72.8,68.4,29.81,SSE,158,0.0,0.0,86,0.00,,CLR,0.00,VWS V14.01,2013-08-07 09:48:00,
2013-08-07 04:49:00,72.8,68.4,29.81,SSE,158,0.0,0.0,86,0.00,,-RA,0.00,VWS V14.01,2013-08-07 09:49:00,
2013-08-07 04:50:00,72.8,68.4,29.81,SSE,158,0.0,0.0,86,0.00,,-RA,0.00,VWS V14.01,2013-08-07 09:50:00,
2013-08-07 04:51:00,72.8,68.4,29.81,SSE,158,0.0,0.0,86,0.00,,-RA,0.00,VWS V14.01,2013-08-07 09:51:00,
2013-08-07 04:52:00,72.8,68.4,29.81,SSE,158,0.0,0.0,86,0.00,,-RA,0.00,VWS V14.01,2013-08-07 09:52:00,
2013-08-07 04:54:00,72.6,68.2,29.81,SSE,158,0.0,0.0,86,0.00,,-RA,0.00,VWS V14.01,2013-08-07 09:54:00,
2013-08-07 04:56:00,72.8,68.4,29.80,SSE,158,0.0,0.0,86,0.00,,-RA,0.00,VWS V14.01,2013-08-07 09:56:00,
2013-08-07 04:57:00,72.6,68.2,29.80,SSE,158,0.0,0.0,86,0.00,,-RA,0.00,VWS V14.01,2013-08-07 09:57:00,
2013-08-07 04:58:00,72.6,68.2,29.81,SSE,158,0.0,0.0,86,0.00,,CLR,0.00,VWS V14.01,2013-08-07 09:58:00,
2013-08-07 04:59:00,72.6,68.2,29.80,SSE,158,0.0,0.0,86,0.00,,-RA,0.00,VWS V14.01,2013-08-07 09:59:00,
2013-08-07 05:00:00,72.6,68.2,29.80,SSE,158,0.0,0.0,86,0.00,,-RA,0.00,VWS V14.01,2013-08-07 10:00:00,
2013-08-07 05:02:00,72.6,68.2,29.81,SSE,158,0.0,0.0,86,0.00,,CLR,0.00,VWS V14.01,2013-08-07 10:02:00,
2013-08-07 05:03:00,72.6,68.2,29.80,SSE,158,0.0,0.0,86,0.00,,-RA,0.00,VWS V14.01,2013-08-07 10:03:00,
2013-08-07 05:04:00,72.6,68.2,29.81,SSE,158,0.0,0.0,86,0.00,,-RA,0.00,VWS V14.01,2013-08-07 10:04:00,
2013-08-07 05:06:00,72.5,68.1,29.80,SSE,158,0.0,0.0,86,0.00,,-RA,0.00,VWS V14.01,2013-08-07 10:06:00,
2013-08-07 05:08:00,72.5,68.1,29.80,SSE,158,0.0,0.0,86,0.00,,CLR,0.00,VWS V14.01,2013-08-07 10:08:00,
2013-08-07 05:09:00,72.5,68.1,29.80,SSE,158,0.0,0.0,86,0.00,,-RA,0.00,VWS V14.01,2013-08-07 10:09:00,
2013-08-07 05:10:00,72.5,68.1,29.80,SSE,158,0.0,0.0,86,0.00,,-RA,0.00,VWS V14.01,2013-08-07 10:10:00,
2013-08-07 05:12:00,72.5,68.1,29.81,SSE,158,0.0,0.0,86,0.00,,-RA,0.00,VWS V14.01,2013-08-07 10:12:00,
2013-08-07 05:13:00,72.5,68.4,29.81,SSE,158,0.0,0.0,87,0.00,,-RA,0.00,VWS V14.01,2013-08-07 10:13:00,
2013-08-07 05:14:00,72.5,68.4,29.81,SSE,158,0.0,0.0,87,0.00,,-RA,0.00,VWS V14.01,2013-08-07 10:14:00,
2013-08-07 05:15:00,72.5,68.4,29.81,SSE,158,0.0,0.0,87,0.00,,-RA,0.00,VWS V14.01,2013-08-07 10:15:00,
2013-08-07 05:16:00,72.5,68.4,29.81,SSE,158,0.0,0.0,87,0.00,,-RA,0.00,VWS V14.01,2013-08-07 10:16:00,
2013-08-07 05:18:00,72.5,68.4,29.81,SSE,158,0.0,0.0,87,0.00,,-RA,0.00,VWS V14.01,2013-08-07 10:18:00,
2013-08-07 05:20:00,72.5,68.4,29.81,SSE,158,0.0,0.0,87,0.00,,-RA,0.00,VWS V14.01,2013-08-07 10:20:00,
2013-08-07 05:21:00,72.5,68.8,29.81,SSE,158,0.0,0.0,88,0.00,,-RA,0.00,VWS V14.01,2013-08-07 10:21:00,
2013-08-07 05:22:00,72.5,68.4,29.80,SSE,158,0.0,0.0,87,0.00,,CLR,0.00,VWS V14.01,2013-08-07 10:22:00,
2013-08-07 05:23:00,72.3,68.6,29.80,SSE,158,0.0,0.0,88,0.00,,-RA,0.00,VWS V14.01,2013-08-07 10:23:00,
2013-08-07 05:24:00,72.3,68.2,29.81,SSE,158,0.0,0.0,87,0.00,,-RA,0.00,VWS V14.01,2013-08-07 10:24:00,
2013-08-07 05:25:00,72.5,68.8,29.81,SSE,158,0.0,0.0,88,0.00,,-RA,0.00,VWS V14.01,2013-08-07 10:25:00,
2013-08-07 05:26:00,72.3,68.2,29.81,SSE,158,0.0,0.0,87,0.00,,CLR,0.00,VWS V14.01,2013-08-07 10:26:00,
2013-08-07 05:28:00,72.3,68.9,29.81,SSE,158,0.0,0.0,89,0.00,,-RA,0.00,VWS V14.01,2013-08-07 10:28:00,
2013-08-07 05:30:00,72.3,68.6,29.80,SSE,158,0.0,0.0,88,0.00,,-RA,0.00,VWS V14.01,2013-08-07 10:30:00,
2013-08-07 05:31:00,72.3,68.9,29.80,SSE,158,0.0,0.0,89,0.00,,-RA,0.00,VWS V14.01,2013-08-07 10:31:00,
2013-08-07 05:32:00,72.3,68.6,29.80,SSE,158,0.0,0.0,88,0.00,,-RA,0.00,VWS V14.01,2013-08-07 10:32:00,
2013-08-07 05:34:00,72.3,68.9,29.80,SSE,158,0.0,0.0,89,0.00,,-RA,0.00,VWS V14.01,2013-08-07 10:34:00,
2013-08-07 05:36:00,72.3,68.9,29.80,SSE,158,0.0,0.0,89,0.00,,-RA,0.00,VWS V14.01,2013-08-07 10:36:00,
2013-08-07 05:37:00,72.3,68.9,29.80,SSE,158,0.0,0.0,89,0.00,,-RA,0.00,VWS V14.01,2013-08-07 10:37:00,
2013-08-07 05:38:00,72.1,68.7,29.79,SSE,158,0.0,0.0,89,0.00,,CLR,0.00,VWS V14.01,2013-08-07 10:38:00,
2013-08-07 05:40:00,72.1,68.7,29.80,SSE,158,0.0,0.0,89,0.00,,CLR,0.00,VWS V14.01,2013-08-07 10:40:00,
2013-08-07 05:41:00,72.1,68.7,29.79,SSE,158,0.0,0.0,89,0.00,,CLR,0.00,VWS V14.01,2013-08-07 10:41:00,
2013-08-07 05:42:00,72.1,68.7,29.79,SSE,158,0.0,0.0,89,0.00,,CLR,0.00,VWS V14.01,2013-08-07 10:42:00,
2013-08-07 05:44:00,72.1,68.7,29.80,SSE,158,0.0,0.0,89,0.00,,CLR,0.00,VWS V14.01,2013-08-07 10:44:00,
2013-08-07 05:46:00,72.1,68.7,29.80,North,0,0.0,0.0,89,0.00,,CLR,0.00,VWS V14.01,2013-08-07 10:46:00,
2013-08-07 05:47:00,72.1,68.7,29.80,North,0,0.0,0.0,89,0.00,,CLR,0.00,VWS V14.01,2013-08-07 10:47:00,
2013-08-07 05:48:00,72.1,68.7,29.80,North,0,0.0,0.0,89,0.00,,CLR,0.00,VWS V14.01,2013-08-07 10:48:00,
2013-08-07 05:50:00,72.1,68.7,29.80,North,0,0.0,0.0,89,0.00,,CLR,0.00,VWS V14.01,2013-08-07 10:50:00,
2013-08-07 05:52:00,72.1,68.7,29.80,North,0,0.0,0.0,89,0.00,,CLR,0.00,VWS V14.01,2013-08-07 10:52:00,
2013-08-07 05:53:00,72.1,68.7,29.80,North,0,0.0,0.0,89,0.00,,CLR,0.00,VWS V14.01,2013-08-07 10:53:00,
2013-08-07 05:54:00,72.1,68.7,29.80,North,0,0.0,0.0,89,0.00,,CLR,0.00,VWS V14.01,2013-08-07 10:54:00,
2013-08-07 05:56:00,72.1,68.7,29.81,North,0,0.0,0.0,89,0.00,,CLR,0.00,VWS V14.01,2013-08-07 10:56:00,
2013-08-07 05:57:00,72.1,68.7,29.81,North,0,0.0,0.0,89,0.00,,CLR,0.00,VWS V14.01,2013-08-07 10:57:00,
2013-08-07 05:58:00,71.9,68.5,29.81,North,0,0.0,0.0,89,0.00,,CLR,0.00,VWS V14.01,2013-08-07 10:58:00,
2013-08-07 05:59:00,71.9,68.5,29.81,North,0,0.0,0.0,89,0.00,,CLR,0.00,VWS V14.01,2013-08-07 10:59:00,
2013-08-07 06:00:00,71.9,68.5,29.81,North,0,0.0,0.0,89,0.00,,CLR,0.00,VWS V14.01,2013-08-07 11:00:00,
2013-08-07 06:02:00,71.9,68.5,29.81,North,0,0.0,0.0,89,0.00,,CLR,0.00,VWS V14.01,2013-08-07 11:02:00,
2013-08-07 06:04:00,71.9,68.5,29.82,North,0,0.0,0.0,89,0.00,,CLR,0.00,VWS V14.01,2013-08-07 11:04:00,
2013-08-07 06:05:00,71.9,68.5,29.82,North,0,0.0,0.0,89,0.00,,CLR,0.00,VWS V14.01,2013-08-07 11:05:00,
2013-08-07 06:06:00,71.9,68.5,29.82,North,0,0.0,0.0,89,0.00,,CLR,0.00,VWS V14.01,2013-08-07 11:06:00,
2013-08-07 06:08:00,71.9,68.5,29.82,North,0,0.0,0.0,89,0.00,,CLR,0.00,VWS V14.01,2013-08-07 11:08:00,
2013-08-07 06:09:00,71.9,68.5,29.82,North,0,0.0,0.0,89,0.00,,CLR,0.00,VWS V14.01,2013-08-07 11:09:00,
2013-08-07 06:10:00,71.9,68.5,29.82,North,0,0.0,0.0,89,0.00,,CLR,0.00,VWS V14.01,2013-08-07 11:10:00,
2013-08-07 06:11:00,71.9,68.5,29.82,North,0,0.0,0.0,89,0.00,,CLR,0.00,VWS V14.01,2013-08-07 11:11:00,
2013-08-07 06:12:00,71.7,68.3,29.82,North,0,0.0,0.0,89,0.00,,CLR,0.00,VWS V14.01,2013-08-07 11:12:00,
2013-08-07 06:14:00,71.9,68.5,29.82,North,0,0.0,0.0,89,0.00,,CLR,0.00,VWS V14.01,2013-08-07 11:14:00,
2013-08-07 06:16:00,71.7,68.3,29.82,North,0,0.0,0.0,89,0.00,,CLR,0.00,VWS V14.01,2013-08-07 11:16:00,
2013-08-07 06:17:00,71.7,68.3,29.82,North,0,0.0,0.0,89,0.00,,CLR,0.00,VWS V14.01,2013-08-07 11:17:00,
2013-08-07 06:18:00,71.7,68.6,29.83,North,0,0.0,0.0,90,0.00,,CLR,0.00,VWS V14.01,2013-08-07 11:18:00,
2013-08-07 06:20:00,71.7,68.3,29.83,North,0,0.0,0.0,89,0.00,,CLR,0.00,VWS V14.01,2013-08-07 11:20:00,
2013-08-07 06:21:00,71.7,68.3,29.83,North,0,0.0,0.0,89,0.00,,CLR,0.00,VWS V14.01,2013-08-07 11:21:00,
2013-08-07 06:22:00,71.9,68.8,29.83,North,0,0.0,0.0,90,0.00,,CLR,0.00,VWS V14.01,2013-08-07 11:22:00,
2013-08-07 06:24:00,71.9,68.8,29.83,North,0,0.0,0.0,90,0.00,,CLR,0.00,VWS V14.01,2013-08-07 11:24:00,
2013-08-07 06:25:00,71.9,68.8,29.83,North,0,0.0,0.0,90,0.00,,CLR,0.00,VWS V14.01,2013-08-07 11:25:00,
2013-08-07 06:26:00,71.9,68.8,29.83,North,0,0.0,0.0,90,0.00,,CLR,0.00,VWS V14.01,2013-08-07 11:26:00,
2013-08-07 06:27:00,72.3,69.2,29.83,North,0,0.0,0.0,90,0.00,,CLR,0.00,VWS V14.01,2013-08-07 11:27:00,
2013-08-07 06:28:00,72.3,69.2,29.83,North,0,0.0,0.0,90,0.00,,CLR,0.00,VWS V14.01,2013-08-07 11:28:00,
2013-08-07 06:30:00,72.5,69.4,29.83,North,0,0.0,0.0,90,0.00,,CLR,0.00,VWS V14.01,2013-08-07 11:30:00,
2013-08-07 06:32:00,72.3,69.2,29.83,North,0,0.0,0.0,90,0.00,,CLR,0.00,VWS V14.01,2013-08-07 11:32:00,
2013-08-07 06:33:00,72.3,68.9,29.83,North,0,0.0,0.0,89,0.00,,CLR,0.00,VWS V14.01,2013-08-07 11:33:00,
2013-08-07 06:34:00,72.3,68.9,29.83,North,0,0.0,0.0,89,0.00,,CLR,0.00,VWS V14.01,2013-08-07 11:34:00,
2013-08-07 06:35:00,72.3,69.2,29.83,North,0,0.0,0.0,90,0.00,,CLR,0.00,VWS V14.01,2013-08-07 11:35:00,
2013-08-07 06:36:00,72.3,69.2,29.83,North,0,0.0,0.0,90,0.00,,CLR,0.00,VWS V14.01,2013-08-07 11:36:00,
2013-08-07 06:38:00,72.5,69.1,29.83,North,0,0.0,0.0,89,0.00,,CLR,0.00,VWS V14.01,2013-08-07 11:38:00,
2013-08-07 06:40:00,72.5,69.1,29.84,North,0,0.0,0.0,89,0.00,,,0.00,VWS V14.01,2013-08-07 11:40:00,
2013-08-07 06:42:00,72.5,69.1,29.84,North,0,0.0,0.0,89,0.00,,CLR,0.00,VWS V14.01,2013-08-07 11:42:00,
2013-08-07 06:44:00,72.5,69.1,29.83,North,0,0.0,0.0,89,0.00,,,0.00,VWS V14.01,2013-08-07 11:44:00,
2013-08-07 06:46:00,72.5,69.1,29.83,North,0,0.0,0.0,89,0.00,,,0.00,VWS V14.01,2013-08-07 11:46:00,
2013-08-07 06:48:00,72.5,69.1,29.84,SSW,202,0.0,0.0,89,0.00,,,0.00,VWS V14.01,2013-08-07 11:48:00,
2013-08-07 06:49:00,72.5,69.1,29.84,SSW,202,0.0,0.0,89,0.00,,,0.00,VWS V14.01,2013-08-07 11:49:00,
2013-08-07 06:50:00,72.5,69.1,29.84,SSW,202,0.0,0.0,89,0.00,,,0.00,VWS V14.01,2013-08-07 11:50:00,
2013-08-07 06:52:00,72.5,69.4,29.84,SSW,202,0.0,0.0,90,0.00,,,0.00,VWS V14.01,2013-08-07 11:52:00,
2013-08-07 06:54:00,72.6,69.5,29.84,South,180,0.0,0.0,90,0.00,,,0.00,VWS V14.01,2013-08-07 11:54:00,
2013-08-07 06:56:00,72.5,69.1,29.84,South,180,0.0,0.0,89,0.00,,,0.00,VWS V14.01,2013-08-07 11:56:00,
2013-08-07 06:57:00,72.6,69.2,29.84,South,180,0.0,0.0,89,0.00,,,0.00,VWS V14.01,2013-08-07 11:57:00,
2013-08-07 06:58:00,72.6,69.5,29.84,South,180,0.0,0.0,90,0.00,,,0.00,VWS V14.01,2013-08-07 11:58:00,
2013-08-07 07:00:00,72.6,69.5,29.83,South,180,0.0,0.0,90,0.00,,CLR,0.00,VWS V14.01,2013-08-07 12:00:00,
2013-08-07 07:01:00,72.6,69.5,29.83,South,180,0.0,0.0,90,0.00,,,0.00,VWS V14.01,2013-08-07 12:01:00,
2013-08-07 07:02:00,72.6,69.5,29.83,South,180,0.0,0.0,90,0.00,,CLR,0.00,VWS V14.01,2013-08-07 12:02:00,
2013-08-07 07:04:00,72.8,69.7,29.83,South,180,0.0,0.0,90,0.00,,,0.00,VWS V14.01,2013-08-07 12:04:00,
2013-08-07 07:06:00,72.8,69.7,29.83,SSW,202,0.0,0.0,90,0.00,,,0.00,VWS V14.01,2013-08-07 12:06:00,
2013-08-07 07:07:00,72.8,69.7,29.83,SSW,202,0.0,0.0,90,0.00,,,0.00,VWS V14.01,2013-08-07 12:07:00,
2013-08-07 07:08:00,72.6,69.5,29.84,South,180,0.0,0.0,90,0.00,,CLR,0.00,VWS V14.01,2013-08-07 12:08:00,
2013-08-07 07:09:00,72.6,69.5,29.84,South,180,0.0,0.0,90,0.00,,,0.00,VWS V14.01,2013-08-07 12:09:00,
2013-08-07 07:10:00,72.6,69.5,29.84,South,180,0.0,0.0,90,0.00,,CLR,0.00,VWS V14.01,2013-08-07 12:10:00,
2013-08-07 07:12:00,72.6,69.5,29.84,South,180,0.0,0.0,90,0.00,,,0.00,VWS V14.01,2013-08-07 12:12:00,
2013-08-07 07:14:00,72.8,69.7,29.84,SSE,158,0.0,0.0,90,0.00,,CLR,0.00,VWS V14.01,2013-08-07 12:14:00,
2013-08-07 07:15:00,72.8,69.7,29.84,SSE,158,0.0,0.0,90,0.00,,,0.00,VWS V14.01,2013-08-07 12:15:00,
2013-08-07 07:16:00,72.6,69.5,29.84,SSE,158,0.0,0.0,90,0.00,,,0.00,VWS V14.01,2013-08-07 12:16:00,
2013-08-07 07:17:00,72.8,69.7,29.85,SSE,158,0.0,0.0,90,0.00,,,0.00,VWS V14.01,2013-08-07 12:17:00,
2013-08-07 07:18:00,72.8,69.7,29.85,SSE,158,0.0,0.0,90,0.00,,,0.00,VWS V14.01,2013-08-07 12:18:00,
2013-08-07 07:20:00,72.8,69.7,29.85,SSE,158,0.0,0.0,90,0.00,,CLR,0.00,VWS V14.01,2013-08-07 12:20:00,
2013-08-07 07:21:00,72.8,69.7,29.85,SSE,158,0.0,0.0,90,0.00,,,0.00,VWS V14.01,2013-08-07 12:21:00,
2013-08-07 07:22:00,72.8,69.7,29.85,SSE,158,0.0,0.0,90,0.00,,,0.00,VWS V14.01,2013-08-07 12:22:00,
2013-08-07 07:24:00,73.0,69.9,29.85,SSE,158,0.0,0.0,90,0.00,,,0.00,VWS V14.01,2013-08-07 12:24:00,
2013-08-07 07:25:00,72.8,69.7,29.85,SSE,158,0.0,0.0,90,0.00,,,0.00,VWS V14.01,2013-08-07 12:25:00,
2013-08-07 07:26:00,73.4,70.3,29.85,SSE,158,0.0,0.0,90,0.00,,,0.00,VWS V14.01,2013-08-07 12:26:00,
2013-08-07 07:28:00,73.0,69.9,29.85,SSE,158,0.0,0.0,90,0.00,,CLR,0.00,VWS V14.01,2013-08-07 12:28:00,
2013-08-07 07:30:00,73.0,69.9,29.85,SSE,158,0.0,0.0,90,0.00,,,0.00,VWS V14.01,2013-08-07 12:30:00,
2013-08-07 07:31:00,73.0,69.9,29.85,SSE,158,0.0,0.0,90,0.00,,,0.00,VWS V14.01,2013-08-07 12:31:00,
2013-08-07 07:32:00,73.2,70.1,29.85,SSE,158,0.0,0.0,90,0.00,,,0.00,VWS V14.01,2013-08-07 12:32:00,
2013-08-07 07:34:00,73.0,69.9,29.85,SSE,158,0.0,0.0,90,0.00,,CLR,0.00,VWS V14.01,2013-08-07 12:34:00,
2013-08-07 07:36:00,73.2,70.1,29.85,SSE,158,0.0,0.0,90,0.00,,,0.00,VWS V14.01,2013-08-07 12:36:00,
2013-08-07 07:37:00,73.2,70.1,29.85,SSE,158,0.0,0.0,90,0.00,,,0.00,VWS V14.01,2013-08-07 12:37:00,
2013-08-07 07:38:00,73.4,70.3,29.85,SSE,158,0.0,0.0,90,0.00,,,0.00,VWS V14.01,2013-08-07 12:38:00,
2013-08-07 07:40:00,73.2,70.1,29.85,SSE,158,0.0,0.0,90,0.00,,CLR,0.00,VWS V14.01,2013-08-07 12:40:00,
2013-08-07 07:41:00,73.4,70.3,29.85,SSE,158,0.0,0.0,90,0.00,,,0.00,VWS V14.01,2013-08-07 12:41:00,
2013-08-07 07:42:00,73.4,70.3,29.85,SSE,158,0.0,0.0,90,0.00,,,0.00,VWS V14.01,2013-08-07 12:42:00,
2013-08-07 07:44:00,73.5,70.4,29.85,WNW,292,0.0,0.0,90,0.00,,CLR,0.00,VWS V14.01,2013-08-07 12:44:00,
2013-08-07 07:45:00,73.4,70.3,29.85,WNW,292,0.0,0.0,90,0.00,,,0.00,VWS V14.01,2013-08-07 12:45:00,
2013-08-07 07:46:00,73.5,70.4,29.86,WNW,292,0.0,0.0,90,0.00,,CLR,0.00,VWS V14.01,2013-08-07 12:46:00,
2013-08-07 07:47:00,73.5,70.4,29.85,WNW,292,0.0,0.0,90,0.00,,,0.00,VWS V14.01,2013-08-07 12:47:00,
2013-08-07 07:48:00,73.5,70.4,29.85,WNW,292,0.0,0.0,90,0.00,,,0.00,VWS V14.01,2013-08-07 12:48:00,
2013-08-07 07:49:00,73.5,70.4,29.85,WNW,292,0.0,0.0,90,0.00,,,0.00,VWS V14.01,2013-08-07 12:49:00,
2013-08-07 07:50:00,73.5,70.4,29.85,WNW,292,0.0,0.0,90,0.00,,OVC017,0.00,VWS V14.01,2013-08-07 12:50:00,
2013-08-07 07:51:00,73.5,70.4,29.85,WNW,292,0.0,0.0,90,0.00,,OVC017,0.00,VWS V14.01,2013-08-07 12:51:00,
2013-08-07 07:52:00,73.7,70.6,29.85,WNW,292,0.0,0.0,90,0.00,,CLR,0.00,VWS V14.01,2013-08-07 12:52:00,
2013-08-07 07:54:00,73.7,70.6,29.85,WNW,292,0.0,0.0,90,0.00,,OVC017,0.00,VWS V14.01,2013-08-07 12:54:00,
2013-08-07 07:55:00,73.7,70.6,29.85,WNW,292,0.0,0.0,90,0.00,,OVC017,0.00,VWS V14.01,2013-08-07 12:55:00,
2013-08-07 07:56:00,73.5,70.4,29.85,SSE,158,0.0,0.0,90,0.00,,OVC017,0.00,VWS V14.01,2013-08-07 12:56:00,
2013-08-07 07:58:00,73.7,70.6,29.85,SSE,158,0.0,0.0,90,0.00,,OVC017,0.00,VWS V14.01,2013-08-07 12:58:00,
2013-08-07 08:00:00,73.7,70.6,29.85,NNW,338,28.0,28.0,90,0.00,,CLR,0.00,VWS V14.01,2013-08-07 13:00:00,
2013-08-07 08:02:00,73.9,70.8,29.85,SSE,158,0.0,28.0,90,0.00,,OVC017,0.00,VWS V14.01,2013-08-07 13:02:00,
2013-08-07 08:03:00,73.9,70.8,29.85,NNW,338,28.0,28.0,90,0.00,,OVC017,0.00,VWS V14.01,2013-08-07 13:03:00,
2013-08-07 08:04:00,74.1,71.0,29.85,West,270,0.0,28.0,90,0.00,,OVC017,0.00,VWS V14.01,2013-08-07 13:04:00,
2013-08-07 08:05:00,74.1,71.0,29.85,West,270,0.0,0.0,90,0.00,,OVC017,0.00,VWS V14.01,2013-08-07 13:05:00,
2013-08-07 08:06:00,74.1,71.0,29.85,WNW,292,0.0,0.0,90,0.00,,OVC017,0.00,VWS V14.01,2013-08-07 13:06:00,
2013-08-07 08:07:00,74.1,71.0,29.85,WNW,292,0.0,0.0,90,0.00,,OVC017,0.00,VWS V14.01,2013-08-07 13:07:00,
2013-08-07 08:08:00,74.1,71.0,29.85,WNW,292,0.0,0.0,90,0.00,,CLR,0.00,VWS V14.01,2013-08-07 13:08:00,
2013-08-07 08:09:00,74.3,71.2,29.85,WNW,292,0.0,0.0,90,0.00,,OVC017,0.00,VWS V14.01,2013-08-07 13:09:00,
2013-08-07 08:10:00,74.3,70.8,29.85,WNW,292,0.0,0.0,89,0.00,,CLR,0.00,VWS V14.01,2013-08-07 13:10:00,
2013-08-07 08:11:00,74.3,70.8,29.85,WNW,292,0.0,0.0,89,0.00,,OVC017,0.00,VWS V14.01,2013-08-07 13:11:00,
2013-08-07 08:12:00,74.3,70.8,29.85,NNW,338,28.0,28.0,89,0.00,,OVC017,0.00,VWS V14.01,2013-08-07 13:12:00,
2013-08-07 08:14:00,74.4,70.6,29.84,WNW,292,0.0,0.0,88,0.00,,OVC017,0.00,VWS V14.01,2013-08-07 13:14:00,
2013-08-07 08:16:00,74.4,70.6,29.84,West,270,0.0,0.0,88,0.00,,CLR,0.00,VWS V14.01,2013-08-07 13:16:00,
2013-08-07 08:18:00,74.6,70.8,29.85,West,270,0.0,0.0,88,0.00,,OVC017,0.00,VWS V14.01,2013-08-07 13:18:00,
2013-08-07 08:20:00,74.6,70.8,29.85,West,270,0.0,0.0,88,0.00,,OVC017,0.00,VWS V14.01,2013-08-07 13:20:00,
2013-08-07 08:22:00,74.6,70.8,29.85,NW,315,0.0,0.0,88,0.00,,CLR,0.00,VWS V14.01,2013-08-07 13:22:00,
2013-08-07 08:23:00,74.8,71.0,29.85,NW,315,0.0,0.0,88,0.00,,OVC017,0.00,VWS V14.01,2013-08-07 13:23:00,
2013-08-07 08:24:00,74.8,71.0,29.84,NW,315,0.0,0.0,88,0.00,,OVC017,0.00,VWS V14.01,2013-08-07 13:24:00,
2013-08-07 08:25:00,75.0,71.2,29.85,NW,315,0.0,0.0,88,0.00,,OVC017,0.00,VWS V14.01,2013-08-07 13:25:00,
2013-08-07 08:26:00,75.2,71.4,29.85,NW,315,0.0,0.0,88,0.00,,CLR,0.00,VWS V14.01,2013-08-07 13:26:00,
2013-08-07 08:28:00,75.3,71.2,29.85,NNW,338,0.0,0.0,87,0.00,,OVC017,0.00,VWS V14.01,2013-08-07 13:28:00,
2013-08-07 08:29:00,75.5,71.4,29.85,NNW,338,0.0,0.0,87,0.00,,OVC017,0.00,VWS V14.01,2013-08-07 13:29:00,
2013-08-07 08:30:00,75.5,71.4,29.84,NNW,338,0.0,0.0,87,0.00,,CLR,0.00,VWS V14.01,2013-08-07 13:30:00,
2013-08-07 08:31:00,75.5,71.4,29.84,NNW,338,0.0,0.0,87,0.00,,OVC017,0.00,VWS V14.01,2013-08-07 13:31:00,
2013-08-07 08:32:00,75.5,71.4,29.84,NNW,338,0.0,0.0,87,0.00,,OVC017,0.00,VWS V14.01,2013-08-07 13:32:00,
2013-08-07 08:34:00,75.7,71.6,29.84,WNW,292,0.0,0.0,87,0.00,,OVC017,0.00,VWS V14.01,2013-08-07 13:34:00,
2013-08-07 08:36:00,75.9,71.8,29.84,WNW,292,0.0,0.0,87,0.00,,OVC017,0.00,VWS V14.01,2013-08-07 13:36:00,
2013-08-07 08:37:00,75.9,71.4,29.84,WNW,292,0.0,0.0,86,0.00,,OVC017,0.00,VWS V14.01,2013-08-07 13:37:00,
2013-08-07 08:38:00,75.9,71.4,29.84,WNW,292,0.0,0.0,86,0.00,,OVC017,0.00,VWS V14.01,2013-08-07 13:38:00,
2013-08-07 08:40:00,75.9,71.1,29.84,WNW,292,0.0,0.0,85,0.00,,BKN019,0.00,VWS V14.01,2013-08-07 13:40:00,
2013-08-07 08:41:00,75.9,71.1,29.84,WNW,292,0.0,0.0,85,0.00,,BKN019,0.00,VWS V14.01,2013-08-07 13:41:00,
2013-08-07 08:42:00,75.9,71.1,29.84,WNW,292,0.0,0.0,85,0.00,,CLR,0.00,VWS V14.01,2013-08-07 13:42:00,
2013-08-07 08:44:00,76.1,71.3,29.84,NW,315,0.0,0.0,85,0.00,,BKN019,0.00,VWS V14.01,2013-08-07 13:44:00,
2013-08-07 08:45:00,76.1,70.6,29.84,NW,315,0.0,0.0,83,0.00,,BKN019,0.00,VWS V14.01,2013-08-07 13:45:00,
2013-08-07 08:46:00,76.1,70.6,29.84,WNW,292,0.0,0.0,83,0.00,,BKN019,0.00,VWS V14.01,2013-08-07 13:46:00,
2013-08-07 08:48:00,76.1,70.6,29.84,North,0,0.0,0.0,83,0.00,,BKN019,0.00,VWS V14.01,2013-08-07 13:48:00,
2013-08-07 08:50:00,76.1,70.2,29.84,WNW,292,0.0,0.0,82,0.00,,CLR,0.00,VWS V14.01,2013-08-07 13:50:00,
2013-08-07 08:52:00,76.4,70.5,29.84,WNW,292,0.0,0.0,82,0.00,,BKN019,0.00,VWS V14.01,2013-08-07 13:52:00,
2013-08-07 08:53:00,76.2,69.9,29.84,WNW,292,0.0,0.0,81,0.00,,BKN019,0.00,VWS V14.01,2013-08-07 13:53:00,
2013-08-07 08:54:00,76.4,70.1,29.84,WNW,292,0.0,0.0,81,0.00,,CLR,0.00,VWS V14.01,2013-08-07 13:54:00,
2013-08-07 08:56:00,76.2,69.6,29.84,WNW,292,0.0,0.0,80,0.00,,BKN019,0.00,VWS V14.01,2013-08-07 13:56:00,
2013-08-07 08:57:00,76.4,69.8,29.84,WNW,292,0.0,0.0,80,0.00,,BKN019,0.00,VWS V14.01,2013-08-07 13:57:00,
2013-08-07 08:58:00,76.2,69.2,29.84,West,270,0.0,0.0,79,0.00,,BKN019,0.00,VWS V14.01,2013-08-07 13:58:00,
2013-08-07 08:59:00,76.2,69.2,29.84,West,270,0.0,0.0,79,0.00,,BKN019,0.00,VWS V14.01,2013-08-07 13:59:00,
2013-08-07 09:00:00,76.4,69.4,29.84,West,270,0.0,0.0,79,0.00,,CLR,0.00,VWS V14.01,2013-08-07 14:00:00,
2013-08-07 09:01:00,76.4,69.4,29.84,West,270,0.0,0.0,79,0.00,,BKN019,0.00,VWS V14.01,2013-08-07 14:01:00,
2013-08-07 09:02:00,76.6,69.2,29.84,West,270,0.0,0.0,78,0.00,,CLR,0.00,VWS V14.01,2013-08-07 14:02:00,
2013-08-07 09:03:00,76.6,69.2,29.84,West,270,0.0,0.0,78,0.00,,BKN019,0.00,VWS V14.01,2013-08-07 14:03:00,
2013-08-07 09:04:00,76.4,69.0,29.84,West,270,0.0,0.0,78,0.00,,BKN019,0.00,VWS V14.01,2013-08-07 14:04:00,
2013-08-07 09:05:00,76.4,68.7,29.84,West,270,0.0,0.0,77,0.00,,BKN019,0.00,VWS V14.01,2013-08-07 14:05:00,
2013-08-07 09:06:00,76.6,68.9,29.84,NW,315,0.0,0.0,77,0.00,,CLR,0.00,VWS V14.01,2013-08-07 14:06:00,
2013-08-07 09:08:00,76.8,69.1,29.84,NNW,338,0.0,0.0,77,0.00,,BKN019,0.00,VWS V14.01,2013-08-07 14:08:00,
2013-08-07 09:09:00,76.8,69.1,29.84,NNW,338,0.0,0.0,77,0.00,,BKN019,0.00,VWS V14.01,2013-08-07 14:09:00,
2013-08-07 09:10:00,77.1,69.0,29.84,NNW,338,0.0,0.0,76,0.00,,BKN019,0.00,VWS V14.01,2013-08-07 14:10:00,
2013-08-07 09:12:00,77.3,69.2,29.84,NNW,338,0.0,0.0,76,0.00,,BKN019,0.00,VWS V14.01,2013-08-07 14:12:00,
2013-08-07 09:14:00,77.3,68.8,29.84,NNW,338,0.0,0.0,75,0.00,,BKN019,0.00,VWS V14.01,2013-08-07 14:14:00,
2013-08-07 09:16:00,77.5,68.6,29.84,NNW,338,0.0,0.0,74,0.00,,BKN019,0.00,VWS V14.01,2013-08-07 14:16:00,
2013-08-07 09:18:00,77.7,68.8,29.84,NNW,338,0.0,0.0,74,0.00,,BKN019,0.00,VWS V14.01,2013-08-07 14:18:00,
2013-08-07 09:20:00,77.9,68.9,29.84,WNW,292,0.0,0.0,74,0.00,,BKN019,0.00,VWS V14.01,2013-08-07 14:20:00,
2013-08-07 09:22:00,77.7,67.6,29.84,WNW,292,0.0,0.0,71,0.00,,CLR,0.00,VWS V14.01,2013-08-07 14:22:00,
2013-08-07 09:23:00,77.7,67.6,29.84,WNW,292,0.0,0.0,71,0.00,,BKN019,0.00,VWS V14.01,2013-08-07 14:23:00,
2013-08-07 09:24:00,77.9,67.8,29.84,NNW,338,0.0,0.0,71,0.00,,CLR,0.00,VWS V14.01,2013-08-07 14:24:00,
2013-08-07 09:25:00,77.9,67.8,29.84,NNW,338,0.0,0.0,71,0.00,,BKN019,0.00,VWS V14.01,2013-08-07 14:25:00,
2013-08-07 09:26:00,77.9,67.3,29.85,WNW,292,0.0,0.0,70,0.00,,CLR,0.00,VWS V14.01,2013-08-07 14:26:00,
2013-08-07 09:28:00,78.2,67.6,29.85,WNW,292,0.0,0.0,70,0.00,,BKN019,0.00,VWS V14.01,2013-08-07 14:28:00,
2013-08-07 09:29:00,78.2,67.6,29.85,WNW,292,0.0,0.0,70,0.00,,BKN019,0.00,VWS V14.01,2013-08-07 14:29:00,
2013-08-07 09:30:00,78.2,67.2,29.85,NNW,338,0.0,0.0,69,0.00,,BKN019,0.00,VWS V14.01,2013-08-07 14:30:00,
2013-08-07 09:32:00,78.2,67.2,29.85,NNW,338,0.0,0.0,69,0.00,,CLR,0.00,VWS V14.01,2013-08-07 14:32:00,
2013-08-07 09:34:00,78.2,66.8,29.85,WNW,292,0.0,0.0,68,0.00,,BKN019,0.00,VWS V14.01,2013-08-07 14:34:00,
2013-08-07 09:35:00,78.2,66.8,29.85,West,270,0.0,0.0,68,0.00,,BKN019,0.00,VWS V14.01,2013-08-07 14:35:00,
2013-08-07 09:36:00,78.0,66.6,29.85,West,270,0.0,0.0,68,0.00,,BKN019,0.00,VWS V14.01,2013-08-07 14:36:00,
2013-08-07 09:37:00,78.0,66.2,29.85,West,270,0.0,0.0,67,0.00,,BKN019,0.00,VWS V14.01,2013-08-07 14:37:00,
2013-08-07 09:38:00,78.2,66.4,29.85,West,270,0.0,0.0,67,0.00,,CLR,0.00,VWS V14.01,2013-08-07 14:38:00,
2013-08-07 09:39:00,78.2,66.4,29.85,West,270,0.0,0.0,67,0.00,,BKN019,0.00,VWS V14.01,2013-08-07 14:39:00,
2013-08-07 09:40:00,78.2,66.4,29.85,West,270,0.0,0.0,67,0.00,,CLR,0.00,VWS V14.01,2013-08-07 14:40:00,
2013-08-07 09:42:00,78.0,65.7,29.85,WNW,292,0.0,0.0,66,0.00,,CLR,0.00,VWS V14.01,2013-08-07 14:42:00,
2013-08-07 09:44:00,78.0,65.7,29.86,West,270,0.0,0.0,66,0.00,,CLR,0.00,VWS V14.01,2013-08-07 14:44:00,
2013-08-07 09:45:00,78.0,65.7,29.86,West,270,0.0,0.0,66,0.00,,CLR,0.00,VWS V14.01,2013-08-07 14:45:00,
2013-08-07 09:46:00,78.0,65.3,29.85,West,270,0.0,0.0,65,0.00,,CLR,0.00,VWS V14.01,2013-08-07 14:46:00,
2013-08-07 09:47:00,78.0,65.3,29.85,West,270,0.0,0.0,65,0.00,,CLR,0.00,VWS V14.01,2013-08-07 14:47:00,
2013-08-07 09:48:00,78.2,65.5,29.86,West,270,0.0,0.0,65,0.00,,CLR,0.00,VWS V14.01,2013-08-07 14:48:00,
2013-08-07 09:49:00,78.2,65.5,29.86,West,270,0.0,0.0,65,0.00,,CLR,0.00,VWS V14.01,2013-08-07 14:49:00,
2013-08-07 09:50:00,78.2,65.9,29.86,West,270,0.0,0.0,66,0.00,,CLR,0.00,VWS V14.01,2013-08-07 14:50:00,
2013-08-07 09:51:00,78.2,65.9,29.86,West,270,0.0,0.0,66,0.00,,CLR,0.00,VWS V14.01,2013-08-07 14:51:00,
2013-08-07 09:52:00,78.2,65.5,29.86,WNW,292,0.0,0.0,65,0.00,,CLR,0.00,VWS V14.01,2013-08-07 14:52:00,
2013-08-07 09:54:00,78.4,65.7,29.86,West,270,0.0,0.0,65,0.00,,CLR,0.00,VWS V14.01,2013-08-07 14:54:00,
2013-08-07 09:55:00,78.4,65.7,29.86,West,270,0.0,0.0,65,0.00,,CLR,0.00,VWS V14.01,2013-08-07 14:55:00,
2013-08-07 09:56:00,78.6,65.4,29.86,West,270,0.0,0.0,64,0.00,,CLR,0.00,VWS V14.01,2013-08-07 14:56:00,
2013-08-07 09:57:00,78.4,65.2,29.86,WSW,248,0.0,0.0,64,0.00,,CLR,0.00,VWS V14.01,2013-08-07 14:57:00,
2013-08-07 09:58:00,78.6,65.0,29.87,West,270,0.0,0.0,63,0.00,,CLR,0.00,VWS V14.01,2013-08-07 14:58:00,
2013-08-07 10:00:00,78.6,65.0,29.86,West,270,0.0,0.0,63,0.00,,CLR,0.00,VWS V14.01,2013-08-07 15:00:00,
2013-08-07 10:01:00,78.6,64.5,29.86,West,270,0.0,0.0,62,0.00,,CLR,0.00,VWS V14.01,2013-08-07 15:01:00,
2013-08-07 10:02:00,78.6,64.5,29.86,West,270,0.0,0.0,62,0.00,,CLR,0.00,VWS V14.01,2013-08-07 15:02:00,
2013-08-07 10:03:00,78.8,64.7,29.86,WNW,292,0.0,0.0,62,0.00,,CLR,0.00,VWS V14.01,2013-08-07 15:03:00,
2013-08-07 10:04:00,78.9,64.8,29.86,NW,315,0.0,0.0,62,0.00,,CLR,0.00,VWS V14.01,2013-08-07 15:04:00,
2013-08-07 10:05:00,78.9,64.8,29.86,NW,315,0.0,0.0,62,0.00,,CLR,0.00,VWS V14.01,2013-08-07 15:05:00,
2013-08-07 10:06:00,78.9,64.8,29.86,NW,315,0.0,0.0,62,0.00,,CLR,0.00,VWS V14.01,2013-08-07 15:06:00,
2013-08-07 10:08:00,79.1,65.0,29.86,NNW,338,0.0,0.0,62,0.00,,CLR,0.00,VWS V14.01,2013-08-07 15:08:00,
2013-08-07 10:10:00,79.1,65.0,29.86,WNW,292,0.0,0.0,62,0.00,,CLR,0.00,VWS V14.01,2013-08-07 15:10:00,
2013-08-07 10:12:00,79.3,64.7,29.86,West,270,0.0,0.0,61,0.00,,CLR,0.00,VWS V14.01,2013-08-07 15:12:00,
2013-08-07 10:14:00,79.3,64.7,29.86,WNW,292,0.0,0.0,61,0.00,,CLR,0.00,VWS V14.01,2013-08-07 15:14:00,
2013-08-07 10:15:00,79.5,64.9,29.86,West,270,0.0,0.0,61,0.00,,CLR,0.00,VWS V14.01,2013-08-07 15:15:00,
2013-08-07 10:16:00,79.5,64.9,29.86,NNW,338,0.0,0.0,61,0.00,,CLR,0.00,VWS V14.01,2013-08-07 15:16:00,
2013-08-07 10:17:00,79.3,64.7,29.86,NNW,338,0.0,0.0,61,0.00,,CLR,0.00,VWS V14.01,2013-08-07 15:17:00,
2013-08-07 10:18:00,79.3,64.7,29.86,WNW,292,0.0,0.0,61,0.00,,CLR,0.00,VWS V14.01,2013-08-07 15:18:00,
2013-08-07 10:20:00,79.5,64.4,29.86,West,270,0.0,0.0,60,0.00,,CLR,0.00,VWS V14.01,2013-08-07 15:20:00,
2013-08-07 10:22:00,79.3,64.2,29.86,NW,315,0.0,0.0,60,0.00,,CLR,0.00,VWS V14.01,2013-08-07 15:22:00,
2013-08-07 10:23:00,79.5,64.4,29.86,NW,315,0.0,0.0,60,0.00,,CLR,0.00,VWS V14.01,2013-08-07 15:23:00,
2013-08-07 10:24:00,79.5,64.4,29.86,West,270,0.0,0.0,60,0.00,,CLR,0.00,VWS V14.01,2013-08-07 15:24:00,
2013-08-07 10:26:00,79.5,64.4,29.86,NW,315,0.0,0.0,60,0.00,,CLR,0.00,VWS V14.01,2013-08-07 15:26:00,
2013-08-07 10:28:00,79.5,64.4,29.86,NNW,338,0.0,0.0,60,0.00,,CLR,0.00,VWS V14.01,2013-08-07 15:28:00,
2013-08-07 10:30:00,79.5,64.4,29.86,WNW,292,0.0,0.0,60,0.00,,CLR,0.00,VWS V14.01,2013-08-07 15:30:00,
2013-08-07 10:31:00,79.7,64.1,29.86,WNW,292,0.0,0.0,59,0.00,,CLR,0.00,VWS V14.01,2013-08-07 15:31:00,
2013-08-07 10:32:00,79.7,64.6,29.86,West,270,0.0,0.0,60,0.00,,CLR,0.00,VWS V14.01,2013-08-07 15:32:00,
2013-08-07 10:34:00,79.5,63.9,29.86,West,270,0.0,0.0,59,0.00,,CLR,0.00,VWS V14.01,2013-08-07 15:34:00,
2013-08-07 10:36:00,79.5,63.9,29.86,West,270,0.0,0.0,59,0.00,,CLR,0.00,VWS V14.01,2013-08-07 15:36:00,
2013-08-07 10:37:00,79.3,63.7,29.86,West,270,0.0,0.0,59,0.00,,CLR,0.00,VWS V14.01,2013-08-07 15:37:00,
2013-08-07 10:38:00,79.5,63.9,29.86,WNW,292,0.0,0.0,59,0.00,,CLR,0.00,VWS V14.01,2013-08-07 15:38:00,
2013-08-07 10:40:00,79.5,63.9,29.86,West,270,0.0,0.0,59,0.00,,CLR,0.00,VWS V14.01,2013-08-07 15:40:00,
2013-08-07 10:42:00,79.5,63.9,29.86,WNW,292,0.0,0.0,59,0.00,,SCT100,0.00,VWS V14.01,2013-08-07 15:42:00,
2013-08-07 10:43:00,79.5,63.9,29.86,WNW,292,0.0,0.0,59,0.00,,SCT100,0.00,VWS V14.01,2013-08-07 15:43:00,
2013-08-07 10:44:00,79.5,63.9,29.86,WNW,292,0.0,0.0,59,0.00,,SCT100,0.00,VWS V14.01,2013-08-07 15:44:00,
2013-08-07 10:46:00,79.5,63.9,29.86,North,0,0.0,0.0,59,0.00,,CLR,0.00,VWS V14.01,2013-08-07 15:46:00,
2013-08-07 10:48:00,79.7,63.6,29.86,NNW,338,0.0,0.0,58,0.00,,SCT100,0.00,VWS V14.01,2013-08-07 15:48:00,
2013-08-07 10:49:00,79.7,64.1,29.86,North,0,0.0,0.0,59,0.00,,SCT100,0.00,VWS V14.01,2013-08-07 15:49:00,
2013-08-07 10:50:00,79.8,64.2,29.86,NNE,22,0.0,0.0,59,0.00,,SCT100,0.00,VWS V14.01,2013-08-07 15:50:00,
2013-08-07 10:52:00,79.8,64.2,29.86,North,0,0.0,0.0,59,0.00,,CLR,0.00,VWS V14.01,2013-08-07 15:52:00,
2013-08-07 10:53:00,80.0,64.4,29.86,North,0,0.0,0.0,59,0.00,,SCT100,0.00,VWS V14.01,2013-08-07 15:53:00,
2013-08-07 10:54:00,80.2,64.6,29.86,WNW,292,0.0,0.0,59,0.00,,CLR,0.00,VWS V14.01,2013-08-07 15:54:00,
2013-08-07 10:56:00,80.0,64.4,29.86,WNW,292,0.0,0.0,59,0.00,,SCT100,0.00,VWS V14.01,2013-08-07 15:56:00,
2013-08-07 10:58:00,80.0,63.9,29.86,West,270,0.0,0.0,58,0.00,,SCT100,0.00,VWS V14.01,2013-08-07 15:58:00,
2013-08-07 10:59:00,80.2,64.1,29.86,WNW,292,0.0,0.0,58,0.00,,SCT100,0.00,VWS V14.01,2013-08-07 15:59:00,
2013-08-07 11:00:00,80.0,63.9,29.87,NNW,338,0.0,0.0,58,0.00,,SCT100,0.00,VWS V14.01,2013-08-07 16:00:00,
2013-08-07 11:01:00,80.2,64.1,29.87,NNW,338,0.0,0.0,58,0.00,,SCT100,0.00,VWS V14.01,2013-08-07 16:01:00,
2013-08-07 11:02:00,80.2,64.1,29.86,North,0,0.0,0.0,58,0.00,,SCT100,0.00,VWS V14.01,2013-08-07 16:02:00,
2013-08-07 11:04:00,80.4,64.3,29.86,West,270,0.0,0.0,58,0.00,,CLR,0.00,VWS V14.01,2013-08-07 16:04:00,
2013-08-07 11:06:00,80.4,64.3,29.86,WNW,292,0.0,0.0,58,0.00,,SCT100,0.00,VWS V14.01,2013-08-07 16:06:00,
2013-08-07 11:07:00,80.4,64.3,29.86,West,270,0.0,0.0,58,0.00,,SCT100,0.00,VWS V14.01,2013-08-07 16:07:00,
2013-08-07 11:08:00,80.4,64.3,29.86,West,270,0.0,0.0,58,0.00,,SCT100,0.00,VWS V14.01,2013-08-07 16:08:00,
2013-08-07 11:10:00,80.4,64.3,29.86,WNW,292,0.0,0.0,58,0.00,,SCT100,0.00,VWS V14.01,2013-08-07 16:10:00,
2013-08-07 11:12:00,80.6,64.5,29.86,NNW,338,0.0,0.0,58,0.00,,CLR,0.00,VWS V14.01,2013-08-07 16:12:00,
2013-08-07 11:13:00,80.6,64.5,29.86,NNW,338,0.0,0.0,58,0.00,,SCT100,0.00,VWS V14.01,2013-08-07 16:13:00,
2013-08-07 11:14:00,80.6,64.5,29.86,NNW,338,0.0,0.0,58,0.00,,SCT100,0.00,VWS V14.01,2013-08-07 16:14:00,
2013-08-07 11:15:00,80.4,64.3,29.86,North,0,9.2,9.2,58,0.00,,SCT100,0.00,VWS V14.01,2013-08-07 16:15:00,
2013-08-07 11:16:00,80.6,64.5,29.86,North,0,0.0,9.2,58,0.00,,CLR,0.00,VWS V14.01,2013-08-07 16:16:00,
2013-08-07 11:18:00,80.7,64.6,29.86,North,0,0.0,0.0,58,0.00,,SCT100,0.00,VWS V14.01,2013-08-07 16:18:00,
2013-08-07 11:19:00,80.7,64.6,29.86,North,0,0.0,0.0,58,0.00,,SCT100,0.00,VWS V14.01,2013-08-07 16:19:00,
2013-08-07 11:20:00,80.9,65.2,29.86,WNW,292,0.0,0.0,59,0.00,,CLR,0.00,VWS V14.01,2013-08-07 16:20:00,
2013-08-07 11:22:00,80.9,65.2,29.86,West,270,0.0,0.0,59,0.00,,SCT100,0.00,VWS V14.01,2013-08-07 16:22:00,
2013-08-07 11:24:00,80.9,64.8,29.86,WNW,292,0.0,0.0,58,0.00,,SCT100,0.00,VWS V14.01,2013-08-07 16:24:00,
2013-08-07 11:26:00,80.7,64.6,29.86,West,270,0.0,0.0,58,0.00,,CLR,0.00,VWS V14.01,2013-08-07 16:26:00,
2013-08-07 11:27:00,80.7,64.6,29.86,West,270,0.0,0.0,58,0.00,,SCT100,0.00,VWS V14.01,2013-08-07 16:27:00,
2013-08-07 11:28:00,80.9,64.8,29.86,NNW,338,0.0,0.0,58,0.00,,SCT100,0.00,VWS V14.01,2013-08-07 16:28:00,
2013-08-07 11:30:00,80.9,64.8,29.87,NW,315,0.0,0.0,58,0.00,,SCT100,0.00,VWS V14.01,2013-08-07 16:30:00,
2013-08-07 11:31:00,80.9,64.8,29.87,NW,315,0.0,0.0,58,0.00,,SCT100,0.00,VWS V14.01,2013-08-07 16:31:00,
2013-08-07 11:32:00,80.9,64.8,29.87,NW,315,0.0,0.0,58,0.00,,SCT100,0.00,VWS V14.01,2013-08-07 16:32:00,
2013-08-07 11:34:00,80.9,64.8,29.87,NNW,338,0.0,0.0,58,0.00,,SCT100,0.00,VWS V14.01,2013-08-07 16:34:00,
2013-08-07 11:36:00,81.3,65.6,29.87,NNW,338,0.0,0.0,59,0.00,,SCT100,0.00,VWS V14.01,2013-08-07 16:36:00,
2013-08-07 11:38:00,81.3,65.6,29.87,WSW,248,0.0,0.0,59,0.00,,SCT100,0.00,VWS V14.01,2013-08-07 16:38:00,
2013-08-07 11:39:00,81.3,65.6,29.87,WSW,248,0.0,0.0,59,0.00,,SCT100,0.00,VWS V14.01,2013-08-07 16:39:00,
2013-08-07 11:40:00,81.3,65.6,29.87,North,0,0.0,0.0,59,0.00,,CLR,0.00,VWS V14.01,2013-08-07 16:40:00,
2013-08-07 11:42:00,81.3,65.6,29.87,North,0,0.0,0.0,59,0.00,,CLR,0.00,VWS V14.01,2013-08-07 16:42:00,
2013-08-07 11:44:00,81.3,65.1,29.87,NNE,22,0.0,0.0,58,0.00,,CLR,0.00,VWS V14.01,2013-08-07 16:44:00,
2013-08-07 11:45:00,81.3,65.1,29.87,NNE,22,0.0,0.0,58,0.00,,CLR,0.00,VWS V14.01,2013-08-07 16:45:00,
2013-08-07 11:46:00,81.6,65.9,29.87,NNW,338,0.0,0.0,59,0.00,,CLR,0.00,VWS V14.01,2013-08-07 16:46:00,
2013-08-07 11:47:00,81.6,65.9,29.87,NNW,338,0.0,0.0,59,0.00,,CLR,0.00,VWS V14.01,2013-08-07 16:47:00,
2013-08-07 11:48:00,81.6,65.9,29.87,NNW,338,0.0,0.0,59,0.00,,CLR,0.00,VWS V14.01,2013-08-07 16:48:00,
2013-08-07 11:49:00,81.6,65.9,29.87,NNW,338,0.0,0.0,59,0.00,,CLR,0.00,VWS V14.01,2013-08-07 16:49:00,
2013-08-07 11:50:00,81.8,66.1,29.87,NW,315,0.0,0.0,59,0.00,,CLR,0.00,VWS V14.01,2013-08-07 16:50:00,
2013-08-07 11:52:00,82.2,66.0,29.87,WNW,292,0.0,6.2,58,0.00,,CLR,0.00,VWS V14.01,2013-08-07 16:52:00,
2013-08-07 11:54:00,82.2,66.0,29.87,WNW,292,0.0,0.0,58,0.00,,CLR,0.00,VWS V14.01,2013-08-07 16:54:00,
2013-08-07 11:55:00,82.2,65.5,29.87,WNW,292,0.0,0.0,57,0.00,,CLR,0.00,VWS V14.01,2013-08-07 16:55:00,
2013-08-07 11:56:00,82.2,65.5,29.87,WNW,292,0.0,0.0,57,0.00,,CLR,0.00,VWS V14.01,2013-08-07 16:56:00,
2013-08-07 11:58:00,82.2,65.5,29.87,WNW,292,0.0,0.0,57,0.00,,CLR,0.00,VWS V14.01,2013-08-07 16:58:00,
2013-08-07 12:00:00,82.0,65.3,29.87,WNW,292,0.0,0.0,57,0.00,,CLR,0.00,VWS V14.01,2013-08-07 17:00:00,
2013-08-07 12:01:00,82.0,65.3,29.87,NNW,338,3.4,3.4,57,0.00,,CLR,0.00,VWS V14.01,2013-08-07 17:01:00,
2013-08-07 12:02:00,82.0,64.8,29.87,WNW,292,0.0,3.4,56,0.00,,CLR,0.00,VWS V14.01,2013-08-07 17:02:00,
2013-08-07 12:03:00,82.0,64.8,29.87,WNW,292,0.0,0.0,56,0.00,,CLR,0.00,VWS V14.01,2013-08-07 17:03:00,
2013-08-07 12:04:00,82.0,65.3,29.87,North,0,0.0,0.0,57,0.00,,CLR,0.00,VWS V14.01,2013-08-07 17:04:00,
2013-08-07 12:06:00,82.2,65.5,29.87,North,0,0.0,0.0,57,0.00,,CLR,0.00,VWS V14.01,2013-08-07 17:06:00,
2013-08-07 12:07:00,82.2,65.5,29.87,NNW,338,0.0,0.0,57,0.00,,CLR,0.00,VWS V14.01,2013-08-07 17:07:00,
2013-08-07 12:08:00,82.4,65.7,29.87,West,270,0.0,0.0,57,0.00,,CLR,0.00,VWS V14.01,2013-08-07 17:08:00,
2013-08-07 12:10:00,82.4,65.1,29.87,NW,315,0.0,0.0,56,0.00,,CLR,0.00,VWS V14.01,2013-08-07 17:10:00,
2013-08-07 12:11:00,82.4,65.1,29.87,NW,315,0.0,0.0,56,0.00,,CLR,0.00,VWS V14.01,2013-08-07 17:11:00,
2013-08-07 12:12:00,82.5,65.2,29.87,NW,315,0.0,0.0,56,0.00,,CLR,0.00,VWS V14.01,2013-08-07 17:12:00,
2013-08-07 12:14:00,82.5,65.8,29.87,West,270,0.0,0.0,57,0.00,,CLR,0.00,VWS V14.01,2013-08-07 17:14:00,
2013-08-07 12:16:00,82.7,65.9,29.87,NW,315,0.0,0.0,57,0.00,,CLR,0.00,VWS V14.01,2013-08-07 17:16:00,
2013-08-07 12:17:00,82.7,65.9,29.87,NW,315,0.0,0.0,57,0.00,,CLR,0.00,VWS V14.01,2013-08-07 17:17:00,
2013-08-07 12:18:00,82.7,65.4,29.87,NNE,22,0.0,0.0,56,0.00,,CLR,0.00,VWS V14.01,2013-08-07 17:18:00,
2013-08-07 12:20:00,82.9,65.1,29.87,North,0,0.0,0.0,55,0.00,,CLR,0.00,VWS V14.01,2013-08-07 17:20:00,
2013-08-07 12:21:00,82.9,65.1,29.87,North,0,0.0,0.0,55,0.00,,CLR,0.00,VWS V14.01,2013-08-07 17:21:00,
2013-08-07 12:22:00,82.9,64.6,29.87,North,0,0.0,0.0,54,0.00,,CLR,0.00,VWS V14.01,2013-08-07 17:22:00,
2013-08-07 12:23:00,83.3,64.9,29.87,NNE,22,0.0,0.0,54,0.00,,CLR,0.00,VWS V14.01,2013-08-07 17:23:00,
2013-08-07 12:24:00,83.4,64.5,29.87,WSW,248,0.0,0.0,53,0.00,,CLR,0.00,VWS V14.01,2013-08-07 17:24:00,
2013-08-07 12:26:00,83.6,64.1,29.87,NNW,338,0.0,0.0,52,0.00,,CLR,0.00,VWS V14.01,2013-08-07 17:26:00,
2013-08-07 12:27:00,83.8,64.3,29.87,North,0,0.0,0.0,52,0.00,,CLR,0.00,VWS V14.01,2013-08-07 17:27:00,
2013-08-07 12:28:00,84.0,64.5,29.87,North,0,0.0,0.0,52,0.00,,CLR,0.00,VWS V14.01,2013-08-07 17:28:00,
2013-08-07 12:29:00,83.8,64.3,29.87,NNW,338,0.0,0.0,52,0.00,,CLR,0.00,VWS V14.01,2013-08-07 17:29:00,
2013-08-07 12:30:00,83.8,63.8,29.87,WNW,292,0.0,0.0,51,0.00,,CLR,0.00,VWS V14.01,2013-08-07 17:30:00,
2013-08-07 12:32:00,83.8,63.8,29.87,NNE,22,0.0,0.0,51,0.00,,CLR,0.00,VWS V14.01,2013-08-07 17:32:00,
2013-08-07 12:33:00,84.0,63.9,29.87,West,270,0.0,0.0,51,0.00,,CLR,0.00,VWS V14.01,2013-08-07 17:33:00,
2013-08-07 12:34:00,83.8,63.8,29.86,NW,315,0.0,0.0,51,0.00,,CLR,0.00,VWS V14.01,2013-08-07 17:34:00,
2013-08-07 12:36:00,84.0,63.9,29.87,NW,315,0.0,0.0,51,0.00,,CLR,0.00,VWS V14.01,2013-08-07 17:36:00,
2013-08-07 12:38:00,83.6,63.0,29.87,North,0,0.0,0.0,50,0.00,,CLR,0.00,VWS V14.01,2013-08-07 17:38:00,
2013-08-07 12:40:00,83.8,62.0,29.87,NNW,338,0.0,0.0,48,0.00,,CLR,0.00,VWS V14.01,2013-08-07 17:40:00,
2013-08-07 12:41:00,83.8,61.4,29.87,NNW,338,3.4,3.4,47,0.00,,CLR,0.00,VWS V14.01,2013-08-07 17:41:00,
2013-08-07 12:42:00,83.8,60.8,29.87,WNW,292,0.0,3.4,46,0.00,,CLR,0.00,VWS V14.01,2013-08-07 17:42:00,
2013-08-07 12:44:00,83.8,60.2,29.87,NNW,338,4.4,4.4,45,0.00,,CLR,0.00,VWS V14.01,2013-08-07 17:44:00,
2013-08-07 12:45:00,83.8,60.2,29.87,NNW,338,0.0,4.4,45,0.00,,CLR,0.00,VWS V14.01,2013-08-07 17:45:00,
2013-08-07 12:46:00,83.8,60.2,29.87,North,0,0.0,0.0,45,0.00,,CLR,0.00,VWS V14.01,2013-08-07 17:46:00,
2013-08-07 12:48:00,84.0,61.0,29.87,North,0,0.0,0.0,46,0.00,,CLR,0.00,VWS V14.01,2013-08-07 17:48:00,
2013-08-07 12:49:00,84.0,61.0,29.86,NNW,338,0.0,0.0,46,0.00,,CLR,0.00,VWS V14.01,2013-08-07 17:49:00,
2013-08-07 12:50:00,84.0,60.4,29.87,NNW,338,0.0,0.0,45,0.00,,CLR,0.00,VWS V14.01,2013-08-07 17:50:00,
2013-08-07 12:51:00,84.2,60.6,29.87,NNW,338,0.0,0.0,45,0.00,,CLR,0.00,VWS V14.01,2013-08-07 17:51:00,
2013-08-07 12:52:00,84.3,60.7,29.87,NNW,338,0.0,0.0,45,0.00,,CLR,0.00,VWS V14.01,2013-08-07 17:52:00,
2013-08-07 12:54:00,84.5,60.2,29.87,NNW,338,0.0,0.0,44,0.00,,CLR,0.00,VWS V14.01,2013-08-07 17:54:00,
2013-08-07 12:56:00,84.9,60.6,29.87,NNW,338,0.0,0.0,44,0.00,,CLR,0.00,VWS V14.01,2013-08-07 17:56:00,
2013-08-07 12:58:00,85.1,60.8,29.87,NNW,338,0.0,0.0,44,0.00,,CLR,0.00,VWS V14.01,2013-08-07 17:58:00,
2013-08-07 12:59:00,85.2,60.2,29.87,North,0,0.0,0.0,43,0.00,,CLR,0.00,VWS V14.01,2013-08-07 17:59:00,
2013-08-07 13:00:00,85.1,60.1,29.87,WNW,292,0.0,0.0,43,0.00,,CLR,0.00,VWS V14.01,2013-08-07 18:00:00,
2013-08-07 13:02:00,84.9,59.9,29.87,WNW,292,0.0,0.0,43,0.00,,CLR,0.00,VWS V14.01,2013-08-07 18:02:00,
2013-08-07 13:04:00,84.9,60.6,29.87,WNW,292,0.0,0.0,44,0.00,,CLR,0.00,VWS V14.01,2013-08-07 18:04:00,
2013-08-07 13:05:00,84.7,60.4,29.87,NNW,338,2.2,2.2,44,0.00,,CLR,0.00,VWS V14.01,2013-08-07 18:05:00,
2013-08-07 13:06:00,84.7,60.4,29.87,North,0,0.0,2.2,44,0.00,,CLR,0.00,VWS V14.01,2013-08-07 18:06:00,
2013-08-07 13:07:00,84.9,61.2,29.87,North,0,0.0,0.0,45,0.00,,CLR,0.00,VWS V14.01,2013-08-07 18:07:00,
2013-08-07 13:08:00,84.9,61.2,29.87,North,0,0.0,0.0,45,0.00,,CLR,0.00,VWS V14.01,2013-08-07 18:08:00,
2013-08-07 13:10:00,84.7,61.0,29.87,NW,315,0.0,0.0,45,0.00,,CLR,0.00,VWS V14.01,2013-08-07 18:10:00,
2013-08-07 13:11:00,84.9,60.6,29.87,NW,315,0.0,0.0,44,0.00,,CLR,0.00,VWS V14.01,2013-08-07 18:11:00,
2013-08-07 13:12:00,84.9,60.6,29.87,NNW,338,0.0,0.0,44,0.00,,CLR,0.00,VWS V14.01,2013-08-07 18:12:00,
2013-08-07 13:14:00,85.1,60.1,29.87,North,0,0.0,0.0,43,0.00,,CLR,0.00,VWS V14.01,2013-08-07 18:14:00,
2013-08-07 13:16:00,84.9,59.9,29.87,NNE,22,0.0,0.0,43,0.00,,CLR,0.00,VWS V14.01,2013-08-07 18:16:00,
2013-08-07 13:17:00,85.1,60.1,29.87,North,0,0.0,0.0,43,0.00,,CLR,0.00,VWS V14.01,2013-08-07 18:17:00,
2013-08-07 13:18:00,85.1,59.5,29.87,WNW,292,0.0,0.0,42,0.00,,CLR,0.00,VWS V14.01,2013-08-07 18:18:00,
2013-08-07 13:20:00,85.1,58.8,29.87,NW,315,0.0,0.0,41,0.00,,CLR,0.00,VWS V14.01,2013-08-07 18:20:00,
2013-08-07 13:22:00,85.2,58.9,29.87,NNW,338,0.0,0.0,41,0.00,,CLR,0.00,VWS V14.01,2013-08-07 18:22:00,
2013-08-07 13:23:00,85.1,58.8,29.87,NNW,338,0.8,0.8,41,0.00,,CLR,0.00,VWS V14.01,2013-08-07 18:23:00,
2013-08-07 13:24:00,85.4,59.0,29.87,North,0,0.0,0.8,41,0.00,,CLR,0.00,VWS V14.01,2013-08-07 18:24:00,
2013-08-07 13:25:00,85.4,59.0,29.86,North,0,0.0,0.0,41,0.00,,CLR,0.00,VWS V14.01,2013-08-07 18:25:00,
2013-08-07 13:26:00,85.4,59.0,29.87,NNE,22,0.0,0.0,41,0.00,,CLR,0.00,VWS V14.01,2013-08-07 18:26:00,
2013-08-07 13:28:00,85.4,59.7,29.87,NNE,22,0.0,0.0,42,0.00,,CLR,0.00,VWS V14.01,2013-08-07 18:28:00,
2013-08-07 13:29:00,85.4,59.7,29.87,NNE,22,0.0,0.0,42,0.00,,CLR,0.00,VWS V14.01,2013-08-07 18:29:00,
2013-08-07 13:30:00,85.6,59.9,29.87,NNE,22,0.0,0.0,42,0.00,,CLR,0.00,VWS V14.01,2013-08-07 18:30:00,
2013-08-07 13:31:00,85.6,59.9,29.87,NW,315,0.0,0.0,42,0.00,,CLR,0.00,VWS V14.01,2013-08-07 18:31:00,
2013-08-07 13:32:00,85.6,59.9,29.87,NNW,338,4.8,4.8,42,0.00,,CLR,0.00,VWS V14.01,2013-08-07 18:32:00,
2013-08-07 13:33:00,85.6,59.9,29.87,NNW,338,0.0,4.8,42,0.00,,CLR,0.00,VWS V14.01,2013-08-07 18:33:00,
2013-08-07 13:34:00,85.6,59.9,29.87,NNW,338,0.0,0.0,42,0.00,,CLR,0.00,VWS V14.01,2013-08-07 18:34:00,
2013-08-07 13:36:00,85.6,59.9,29.87,NNW,338,0.0,0.0,42,0.00,,CLR,0.00,VWS V14.01,2013-08-07 18:36:00,
2013-08-07 13:37:00,85.6,59.9,29.87,North,0,4.4,4.4,42,0.00,,CLR,0.00,VWS V14.01,2013-08-07 18:37:00,
2013-08-07 13:38:00,85.4,59.0,29.87,NNW,338,0.0,0.0,41,0.00,,CLR,0.00,VWS V14.01,2013-08-07 18:38:00,
2013-08-07 13:39:00,85.4,59.0,29.87,NNW,338,0.0,0.0,41,0.00,,FEW034,0.00,VWS V14.01,2013-08-07 18:39:00,
2013-08-07 13:40:00,85.1,58.8,29.87,WNW,292,1.6,1.6,41,0.00,,CLR,0.00,VWS V14.01,2013-08-07 18:40:00,
2013-08-07 13:42:00,84.7,58.4,29.87,NNW,338,0.0,1.6,41,0.00,,CLR,0.00,VWS V14.01,2013-08-07 18:42:00,
2013-08-07 13:44:00,84.7,58.4,29.87,NNW,338,0.0,0.0,41,0.00,,FEW034,0.00,VWS V14.01,2013-08-07 18:44:00,
2013-08-07 13:45:00,84.7,58.4,29.87,North,0,4.8,4.8,41,0.00,,FEW034,0.00,VWS V14.01,2013-08-07 18:45:00,
2013-08-07 13:46:00,84.7,58.4,29.87,NW,315,4.4,4.8,41,0.00,,FEW034,0.00,VWS V14.01,2013-08-07 18:46:00,
2013-08-07 13:47:00,84.9,58.6,29.87,NNW,338,0.0,0.0,41,0.00,,FEW034,0.00,VWS V14.01,2013-08-07 18:47:00,
2013-08-07 13:48:00,85.1,57.4,29.87,NW,315,2.2,2.2,39,0.00,,FEW034,0.00,VWS V14.01,2013-08-07 18:48:00,
2013-08-07 13:50:00,85.4,56.9,29.87,NW,315,4.4,4.4,38,0.00,,FEW034,0.00,VWS V14.01,2013-08-07 18:50:00,
2013-08-07 13:52:00,85.4,56.9,29.87,NNW,338,6.6,6.6,38,0.00,,FEW034,0.00,VWS V14.01,2013-08-07 18:52:00,
2013-08-07 13:53:00,85.2,56.8,29.87,NNW,338,0.0,0.0,38,0.00,,FEW034,0.00,VWS V14.01,2013-08-07 18:53:00,
2013-08-07 13:54:00,84.9,56.5,29.88,North,0,0.0,0.0,38,0.00,,FEW034,0.00,VWS V14.01,2013-08-07 18:54:00,
2013-08-07 13:56:00,84.9,57.9,29.87,NNW,338,1.6,1.6,40,0.00,,FEW034,0.00,VWS V14.01,2013-08-07 18:56:00,
2013-08-07 13:58:00,84.5,56.8,29.87,NNW,338,0.0,0.0,39,0.00,,FEW034,0.00,VWS V14.01,2013-08-07 18:58:00,
2013-08-07 14:00:00,84.7,57.0,29.87,NNW,338,0.0,2.2,39,0.00,,FEW034,0.00,VWS V14.01,2013-08-07 19:00:00,
2013-08-07 14:02:00,84.9,57.9,29.87,WNW,292,0.8,0.8,40,0.00,,CLR,0.00,VWS V14.01,2013-08-07 19:02:00,
2013-08-07 14:04:00,84.9,57.9,29.87,NW,315,0.0,0.8,40,0.00,,FEW034,0.00,VWS V14.01,2013-08-07 19:04:00,
2013-08-07 14:05:00,84.9,57.9,29.87,NW,315,0.0,0.0,40,0.00,,FEW034,0.00,VWS V14.01,2013-08-07 19:05:00,
2013-08-07 14:06:00,84.7,57.7,29.87,NW,315,0.0,0.0,40,0.00,,FEW034,0.00,VWS V14.01,2013-08-07 19:06:00,
2013-08-07 14:07:00,84.7,58.4,29.87,WNW,292,1.2,1.2,41,0.00,,FEW034,0.00,VWS V14.01,2013-08-07 19:07:00,
2013-08-07 14:08:00,84.7,58.4,29.87,WNW,292,6.2,6.2,41,0.00,,FEW034,0.00,VWS V14.01,2013-08-07 19:08:00,
2013-08-07 14:10:00,84.5,58.2,29.87,NNW,338,6.6,8.8,41,0.00,,CLR,0.00,VWS V14.01,2013-08-07 19:10:00,
2013-08-07 14:12:00,84.7,58.4,29.87,NNW,338,0.0,6.6,41,0.00,,FEW034,0.00,VWS V14.01,2013-08-07 19:12:00,
2013-08-07 14:14:00,85.1,59.5,29.87,NW,315,3.0,4.0,42,0.00,,FEW034,0.00,VWS V14.01,2013-08-07 19:14:00,
2013-08-07 14:15:00,85.1,59.5,29.87,NW,315,3.0,3.0,42,0.00,,FEW034,0.00,VWS V14.01,2013-08-07 19:15:00,
2013-08-07 14:16:00,85.4,59.0,29.87,NW,315,0.0,3.0,41,0.00,,CLR,0.00,VWS V14.01,2013-08-07 19:16:00,
2013-08-07 14:18:00,85.1,58.1,29.87,NNE,22,7.6,7.6,40,0.00,,FEW034,0.00,VWS V14.01,2013-08-07 19:18:00,
2013-08-07 14:19:00,85.1,58.1,29.87,NNE,22,7.6,7.6,40,0.00,,FEW034,0.00,VWS V14.01,2013-08-07 19:19:00,
2013-08-07 14:20:00,85.2,58.2,29.87,West,270,0.0,7.6,40,0.00,,FEW034,0.00,VWS V14.01,2013-08-07 19:20:00,
2013-08-07 14:22:00,85.1,58.1,29.86,NW,315,0.0,0.0,40,0.00,,FEW034,0.00,VWS V14.01,2013-08-07 19:22:00,
2013-08-07 14:24:00,85.1,58.1,29.87,NNW,338,0.0,2.6,40,0.00,,FEW034,0.00,VWS V14.01,2013-08-07 19:24:00,
2013-08-07 14:25:00,85.1,58.1,29.87,NNW,338,0.0,0.0,40,0.00,,FEW034,0.00,VWS V14.01,2013-08-07 19:25:00,
2013-08-07 14:26:00,85.1,58.8,29.87,NNW,338,0.0,0.0,41,0.00,,FEW034,0.00,VWS V14.01,2013-08-07 19:26:00,
2013-08-07 14:27:00,84.9,58.6,29.87,NNW,338,8.0,8.0,41,0.00,,FEW034,0.00,VWS V14.01,2013-08-07 19:27:00,
2013-08-07 14:28:00,84.7,58.4,29.87,NNW,338,0.0,8.0,41,0.00,,CLR,0.00,VWS V14.01,2013-08-07 19:28:00,
2013-08-07 14:30:00,84.9,58.6,29.87,NNW,338,1.2,1.2,41,0.00,,FEW034,0.00,VWS V14.01,2013-08-07 19:30:00,
2013-08-07 14:31:00,84.7,58.4,29.87,NNW,338,0.0,0.0,41,0.00,,FEW034,0.00,VWS V14.01,2013-08-07 19:31:00,
2013-08-07 14:32:00,84.5,58.2,29.87,NNW,338,0.0,0.0,41,0.00,,FEW034,0.00,VWS V14.01,2013-08-07 19:32:00,
2013-08-07 14:33:00,84.5,58.2,29.87,WNW,292,0.0,0.0,41,0.00,,FEW034,0.00,VWS V14.01,2013-08-07 19:33:00,
2013-08-07 14:34:00,84.7,59.1,29.87,NW,315,3.0,3.0,42,0.00,,CLR,0.00,VWS V14.01,2013-08-07 19:34:00,
2013-08-07 14:35:00,84.7,59.1,29.87,NW,315,3.0,3.0,42,0.00,,FEW034,0.00,VWS V14.01,2013-08-07 19:35:00,
2013-08-07 14:36:00,84.9,59.3,29.87,WNW,292,0.0,3.0,42,0.00,,CLR,0.00,VWS V14.01,2013-08-07 19:36:00,
2013-08-07 14:37:00,84.9,59.3,29.87,WNW,292,0.0,0.0,42,0.00,,FEW034,0.00,VWS V14.01,2013-08-07 19:37:00,
2013-08-07 14:38:00,84.9,59.3,29.87,WNW,292,5.8,5.8,42,0.00,,FEW034,0.00,VWS V14.01,2013-08-07 19:38:00,
2013-08-07 14:40:00,85.4,58.4,29.87,WNW,292,3.0,4.4,40,0.00,,FEW045,0.00,VWS V14.01,2013-08-07 19:40:00,
2013-08-07 14:42:00,85.1,57.4,29.87,North,0,0.0,0.0,39,0.00,,FEW045,0.00,VWS V14.01,2013-08-07 19:42:00,
2013-08-07 14:44:00,85.1,57.4,29.87,WNW,292,3.0,3.0,39,0.00,,FEW045,0.00,VWS V14.01,2013-08-07 19:44:00,
2013-08-07 14:45:00,84.7,57.7,29.87,WNW,292,0.0,0.0,40,0.00,,FEW045,0.00,VWS V14.01,2013-08-07 19:45:00,
2013-08-07 14:46:00,84.7,57.7,29.87,NNW,338,0.0,0.0,40,0.00,,CLR,0.00,VWS V14.01,2013-08-07 19:46:00,
2013-08-07 14:48:00,84.5,57.5,29.87,North,0,0.0,0.0,40,0.00,,FEW045,0.00,VWS V14.01,2013-08-07 19:48:00,
2013-08-07 14:50:00,84.5,57.5,29.87,North,0,0.0,0.0,40,0.00,,FEW045,0.00,VWS V14.01,2013-08-07 19:50:00,
2013-08-07 14:51:00,84.5,56.8,29.87,NNW,338,0.0,0.0,39,0.00,,FEW045,0.00,VWS V14.01,2013-08-07 19:51:00,
2013-08-07 14:52:00,84.5,56.8,29.87,NNE,22,9.2,9.2,39,0.00,,CLR,0.00,VWS V14.01,2013-08-07 19:52:00,
2013-08-07 14:54:00,84.2,55.9,29.87,NNW,338,2.2,9.2,38,0.00,,FEW045,0.00,VWS V14.01,2013-08-07 19:54:00,
2013-08-07 14:55:00,84.2,55.9,29.87,NNW,338,2.2,2.2,38,0.00,,FEW045,0.00,VWS V14.01,2013-08-07 19:55:00,
2013-08-07 14:56:00,84.2,55.9,29.87,WNW,292,0.0,2.2,38,0.00,,CLR,0.00,VWS V14.01,2013-08-07 19:56:00,
2013-08-07 14:57:00,84.2,55.9,29.87,WNW,292,0.0,0.0,38,0.00,,FEW045,0.00,VWS V14.01,2013-08-07 19:57:00,
2013-08-07 14:58:00,84.0,55.7,29.87,WNW,292,0.0,0.0,38,0.00,,FEW045,0.00,VWS V14.01,2013-08-07 19:58:00,
2013-08-07 15:00:00,84.5,56.1,29.87,West,270,0.0,0.0,38,0.00,,CLR,0.00,VWS V14.01,2013-08-07 20:00:00,
2013-08-07 15:01:00,84.5,56.1,29.87,West,270,0.0,0.0,38,0.00,,FEW045,0.00,VWS V14.01,2013-08-07 20:01:00,
2013-08-07 15:02:00,84.7,57.0,29.87,WNW,292,0.0,0.0,39,0.00,,FEW045,0.00,VWS V14.01,2013-08-07 20:02:00,
2013-08-07 15:03:00,84.7,57.0,29.87,WNW,292,0.0,0.0,39,0.00,,FEW045,0.00,VWS V14.01,2013-08-07 20:03:00,
2013-08-07 15:04:00,84.9,56.5,29.87,West,270,0.0,0.0,38,0.00,,CLR,0.00,VWS V14.01,2013-08-07 20:04:00,
2013-08-07 15:06:00,84.7,55.6,29.87,WNW,292,0.0,0.0,37,0.00,,FEW045,0.00,VWS V14.01,2013-08-07 20:06:00,
2013-08-07 15:07:00,84.7,55.6,29.87,NNW,338,0.0,0.0,37,0.00,,FEW045,0.00,VWS V14.01,2013-08-07 20:07:00,
2013-08-07 15:08:00,84.3,55.2,29.87,North,0,0.0,0.0,37,0.00,,FEW045,0.00,VWS V14.01,2013-08-07 20:08:00,
2013-08-07 15:09:00,84.3,55.2,29.87,North,0,0.0,0.0,37,0.00,,FEW045,0.00,VWS V14.01,2013-08-07 20:09:00,
2013-08-07 15:10:00,84.2,55.9,29.87,WNW,292,0.0,0.0,38,0.00,,CLR,0.00,VWS V14.01,2013-08-07 20:10:00,
2013-08-07 15:12:00,84.0,55.7,29.87,North,0,0.0,0.0,38,0.00,,FEW045,0.00,VWS V14.01,2013-08-07 20:12:00,
2013-08-07 15:13:00,84.0,55.7,29.87,North,0,0.0,0.0,38,0.00,,FEW045,0.00,VWS V14.01,2013-08-07 20:13:00,
2013-08-07 15:14:00,83.8,55.5,29.87,NNW,338,0.0,0.0,38,0.00,,FEW045,0.00,VWS V14.01,2013-08-07 20:14:00,
2013-08-07 15:16:00,83.8,55.5,29.87,WNW,292,0.0,0.0,38,0.00,,FEW045,0.00,VWS V14.01,2013-08-07 20:16:00,
2013-08-07 15:18:00,83.8,55.5,29.87,NNW,338,0.0,0.0,38,0.00,,FEW045,0.00,VWS V14.01,2013-08-07 20:18:00,
2013-08-07 15:19:00,83.6,55.3,29.87,NW,315,0.0,0.0,38,0.00,,FEW045,0.00,VWS V14.01,2013-08-07 20:19:00,
2013-08-07 15:20:00,83.6,55.3,29.87,NW,315,2.2,2.2,38,0.00,,FEW045,0.00,VWS V14.01,2013-08-07 20:20:00,
2013-08-07 15:22:00,83.8,56.2,29.87,NW,315,0.0,4.4,39,0.00,,FEW045,0.00,VWS V14.01,2013-08-07 20:22:00,
2013-08-07 15:23:00,83.8,55.5,29.87,NNW,338,0.0,0.0,38,0.00,,FEW045,0.00,VWS V14.01,2013-08-07 20:23:00,
2013-08-07 15:24:00,83.8,55.5,29.87,WNW,292,0.0,0.0,38,0.00,,CLR,0.00,VWS V14.01,2013-08-07 20:24:00,
2013-08-07 15:26:00,84.0,55.7,29.87,WNW,292,0.0,0.0,38,0.00,,CLR,0.00,VWS V14.01,2013-08-07 20:26:00,
2013-08-07 15:27:00,84.0,55.7,29.87,WNW,292,0.0,0.0,38,0.00,,FEW045,0.00,VWS V14.01,2013-08-07 20:27:00,
2013-08-07 15:28:00,83.8,55.5,29.87,NNW,338,0.0,0.0,38,0.00,,FEW045,0.00,VWS V14.01,2013-08-07 20:28:00,
2013-08-07 15:30:00,83.6,55.3,29.87,WNW,292,0.0,0.0,38,0.00,,FEW045,0.00,VWS V14.01,2013-08-07 20:30:00,
2013-08-07 15:32:00,83.6,55.3,29.87,NNW,338,0.0,0.0,38,0.00,,FEW045,0.00,VWS V14.01,2013-08-07 20:32:00,
2013-08-07 15:34:00,83.6,56.0,29.87,NW,315,0.0,0.0,39,0.00,,CLR,0.00,VWS V14.01,2013-08-07 20:34:00,
2013-08-07 15:35:00,83.3,55.8,29.87,NNW,338,0.0,0.0,39,0.00,,FEW045,0.00,VWS V14.01,2013-08-07 20:35:00,
2013-08-07 15:36:00,83.4,55.9,29.87,WNW,292,0.0,0.0,39,0.00,,FEW045,0.00,VWS V14.01,2013-08-07 20:36:00,
2013-08-07 15:37:00,83.3,55.8,29.87,WNW,292,0.0,0.0,39,0.00,,FEW045,0.00,VWS V14.01,2013-08-07 20:37:00,
2013-08-07 15:38:00,83.3,56.5,29.87,NNW,338,0.0,0.0,40,0.00,,FEW045,0.00,VWS V14.01,2013-08-07 20:38:00,
2013-08-07 15:40:00,83.4,56.6,29.87,NNW,338,0.0,0.0,40,0.00,,SCT044,0.00,VWS V14.01,2013-08-07 20:40:00,
2013-08-07 15:41:00,83.4,56.6,29.87,NNW,338,0.0,0.0,40,0.00,,SCT044,0.00,VWS V14.01,2013-08-07 20:41:00,
2013-08-07 15:42:00,83.4,56.6,29.87,NNW,338,0.0,0.0,40,0.00,,SCT044,0.00,VWS V14.01,2013-08-07 20:42:00,
2013-08-07 15:44:00,83.6,56.8,29.87,NNW,338,0.0,0.0,40,0.00,,SCT044,0.00,VWS V14.01,2013-08-07 20:44:00,
2013-08-07 15:46:00,83.6,56.0,29.87,NNW,338,0.0,0.0,39,0.00,,SCT044,0.00,VWS V14.01,2013-08-07 20:46:00,
2013-08-07 15:47:00,83.6,56.0,29.87,NNW,338,0.0,0.0,39,0.00,,SCT044,0.00,VWS V14.01,2013-08-07 20:47:00,
2013-08-07 15:48:00,83.6,56.0,29.87,NNW,338,0.0,0.0,39,0.00,,SCT044,0.00,VWS V14.01,2013-08-07 20:48:00,
2013-08-07 15:49:00,83.8,56.2,29.87,NW,315,0.0,0.0,39,0.00,,SCT044,0.00,VWS V14.01,2013-08-07 20:49:00,
2013-08-07 15:50:00,83.8,56.2,29.87,NNW,338,0.8,0.8,39,0.00,,CLR,0.00,VWS V14.01,2013-08-07 20:50:00,
2013-08-07 15:52:00,83.6,56.0,29.87,NNW,338,0.0,0.0,39,0.00,,SCT044,0.00,VWS V14.01,2013-08-07 20:52:00,
2013-08-07 15:54:00,83.6,56.0,29.87,WNW,292,0.0,0.0,39,0.00,,SCT044,0.00,VWS V14.01,2013-08-07 20:54:00,
2013-08-07 15:56:00,83.4,55.9,29.87,NNE,22,11.0,11.0,39,0.00,,SCT044,0.00,VWS V14.01,2013-08-07 20:56:00,
2013-08-07 15:58:00,83.6,55.3,29.87,NNE,22,0.0,0.0,38,0.00,,SCT044,0.00,VWS V14.01,2013-08-07 20:58:00,
2013-08-07 15:59:00,83.4,55.2,29.88,NNW,338,0.0,0.0,38,0.00,,SCT044,0.00,VWS V14.01,2013-08-07 20:59:00,
2013-08-07 16:00:00,83.3,55.1,29.87,NNE,22,0.0,0.0,38,0.00,,SCT044,0.00,VWS V14.01,2013-08-07 21:00:00,
2013-08-07 16:01:00,83.3,55.1,29.87,NNW,338,0.0,0.0,38,0.00,,SCT044,0.00,VWS V14.01,2013-08-07 21:01:00,
2013-08-07 16:02:00,83.3,55.1,29.87,NNW,338,0.0,0.0,38,0.00,,CLR,0.00,VWS V14.01,2013-08-07 21:02:00,
2013-08-07 16:03:00,83.3,55.1,29.87,NNW,338,0.0,0.0,38,0.00,,SCT044,0.00,VWS V14.01,2013-08-07 21:03:00,
2013-08-07 16:04:00,83.1,54.9,29.87,NNW,338,0.0,0.0,38,0.00,,CLR,0.00,VWS V14.01,2013-08-07 21:04:00,
2013-08-07 16:05:00,83.1,55.6,29.87,NNW,338,0.0,0.0,39,0.00,,SCT044,0.00,VWS V14.01,2013-08-07 21:05:00,
2013-08-07 16:06:00,83.3,55.8,29.87,North,0,0.0,0.0,39,0.00,,SCT044,0.00,VWS V14.01,2013-08-07 21:06:00,
2013-08-07 16:07:00,83.3,55.8,29.87,NE,45,0.0,0.0,39,0.00,,SCT044,0.00,VWS V14.01,2013-08-07 21:07:00,
2013-08-07 16:08:00,83.3,55.1,29.87,NNW,338,0.0,0.0,38,0.00,,SCT044,0.00,VWS V14.01,2013-08-07 21:08:00,
2013-08-07 16:09:00,83.3,55.1,29.87,NNW,338,0.0,0.0,38,0.00,,SCT044,0.00,VWS V14.01,2013-08-07 21:09:00,
2013-08-07 16:10:00,83.4,55.2,29.87,NNE,22,9.2,9.2,38,0.00,,CLR,0.00,VWS V14.01,2013-08-07 21:10:00,
2013-08-07 16:12:00,83.4,55.2,29.87,NNW,338,0.0,9.2,38,0.00,,SCT044,0.00,VWS V14.01,2013-08-07 21:12:00,
2013-08-07 16:14:00,83.8,56.2,29.87,NNW,338,0.0,0.0,39,0.00,,SCT044,0.00,VWS V14.01,2013-08-07 21:14:00,
2013-08-07 16:15:00,83.8,56.2,29.87,NNW,338,0.0,0.0,39,0.00,,SCT044,0.00,VWS V14.01,2013-08-07 21:15:00,
2013-08-07 16:16:00,84.0,56.4,29.87,North,0,8.4,8.4,39,0.00,,SCT044,0.00,VWS V14.01,2013-08-07 21:16:00,
2013-08-07 16:18:00,84.2,56.6,29.87,North,0,4.4,8.4,39,0.00,,SCT044,0.00,VWS V14.01,2013-08-07 21:18:00,
2013-08-07 16:20:00,84.2,56.6,29.88,NNW,338,0.0,4.4,39,0.00,,SCT044,0.00,VWS V14.01,2013-08-07 21:20:00,
2013-08-07 16:21:00,84.3,56.7,29.88,NNW,338,7.6,7.6,39,0.00,,SCT044,0.00,VWS V14.01,2013-08-07 21:21:00,
2013-08-07 16:22:00,84.3,56.7,29.88,NW,315,0.0,7.6,39,0.00,,SCT044,0.00,VWS V14.01,2013-08-07 21:22:00,
2013-08-07 16:24:00,84.0,56.4,29.88,NNW,338,0.0,0.0,39,0.00,,SCT044,0.00,VWS V14.01,2013-08-07 21:24:00,
2013-08-07 16:26:00,84.3,56.7,29.88,North,0,4.0,4.0,39,0.00,,SCT044,0.00,VWS V14.01,2013-08-07 21:26:00,
2013-08-07 16:27:00,84.2,56.6,29.88,NNE,22,4.4,4.4,39,0.00,,SCT044,0.00,VWS V14.01,2013-08-07 21:27:00,
2013-08-07 16:28:00,84.0,56.4,29.88,NNE,22,13.4,13.4,39,0.00,,SCT044,0.00,VWS V14.01,2013-08-07 21:28:00,
2013-08-07 16:30:00,83.8,56.2,29.88,NNW,338,0.0,13.4,39,0.00,,CLR,0.00,VWS V14.01,2013-08-07 21:30:00,
2013-08-07 16:31:00,83.8,56.2,29.88,NNW,338,0.0,0.0,39,0.00,,SCT044,0.00,VWS V14.01,2013-08-07 21:31:00,
2013-08-07 16:32:00,83.6,56.0,29.88,NNW,338,0.0,0.0,39,0.00,,SCT044,0.00,VWS V14.01,2013-08-07 21:32:00,
2013-08-07 16:33:00,83.6,56.0,29.88,NNW,338,1.2,1.2,39,0.00,,SCT044,0.00,VWS V14.01,2013-08-07 21:33:00,
2013-08-07 16:34:00,83.6,56.0,29.88,NNE,22,0.0,1.2,39,0.00,,CLR,0.00,VWS V14.01,2013-08-07 21:34:00,
2013-08-07 16:36:00,83.6,56.0,29.88,North,0,0.0,0.0,39,0.00,,SCT044,0.00,VWS V14.01,2013-08-07 21:36:00,
2013-08-07 16:38:00,83.8,56.2,29.88,NNW,338,0.0,0.0,39,0.00,,SCT044,0.00,VWS V14.01,2013-08-07 21:38:00,
2013-08-07 16:39:00,83.6,56.0,29.88,NNW,338,0.0,0.0,39,0.00,,FEW045,0.00,VWS V14.01,2013-08-07 21:39:00,
2013-08-07 16:40:00,83.6,56.0,29.88,NNW,338,0.0,0.0,39,0.00,,CLR,0.00,VWS V14.01,2013-08-07 21:40:00,
2013-08-07 16:41:00,83.6,56.0,29.88,NNW,338,0.0,0.0,39,0.00,,FEW045,0.00,VWS V14.01,2013-08-07 21:41:00,
2013-08-07 16:42:00,83.8,56.2,29.88,North,0,0.0,0.0,39,0.00,,FEW045,0.00,VWS V14.01,2013-08-07 21:42:00,
2013-08-07 16:44:00,83.8,56.2,29.88,NNW,338,0.0,0.0,39,0.00,,CLR,0.00,VWS V14.01,2013-08-07 21:44:00,
2013-08-07 16:45:00,83.8,56.2,29.89,North,0,5.2,5.2,39,0.00,,FEW045,0.00,VWS V14.01,2013-08-07 21:45:00,
2013-08-07 16:46:00,83.8,55.5,29.89,NNW,338,0.0,5.2,38,0.00,,CLR,0.00,VWS V14.01,2013-08-07 21:46:00,
2013-08-07 16:48:00,83.8,55.5,29.88,NNW,338,0.0,0.0,38,0.00,,FEW045,0.00,VWS V14.01,2013-08-07 21:48:00,
2013-08-07 16:49:00,83.8,55.5,29.88,WNW,292,0.0,0.0,38,0.00,,FEW045,0.00,VWS V14.01,2013-08-07 21:49:00,
2013-08-07 16:50:00,83.4,55.2,29.88,NNW,338,0.0,0.0,38,0.00,,CLR,0.00,VWS V14.01,2013-08-07 21:50:00,
2013-08-07 16:52:00,83.3,54.3,29.88,NNW,338,0.0,0.0,37,0.00,,FEW045,0.00,VWS V14.01,2013-08-07 21:52:00,
2013-08-07 16:54:00,82.9,54.7,29.88,NNW,338,0.0,0.0,38,0.00,,FEW045,0.00,VWS V14.01,2013-08-07 21:54:00,
2013-08-07 16:55:00,82.7,54.5,29.88,NNW,338,0.0,0.0,38,0.00,,FEW045,0.00,VWS V14.01,2013-08-07 21:55:00,
2013-08-07 16:56:00,82.7,55.2,29.88,NW,315,0.0,0.0,39,0.00,,CLR,0.00,VWS V14.01,2013-08-07 21:56:00,
2013-08-07 16:57:00,82.7,55.2,29.88,NW,315,0.0,0.0,39,0.00,,FEW045,0.00,VWS V14.01,2013-08-07 21:57:00,
2013-08-07 16:58:00,82.7,55.2,29.88,NNW,338,0.0,0.0,39,0.00,,FEW045,0.00,VWS V14.01,2013-08-07 21:58:00,
2013-08-07 17:00:00,83.1,56.3,29.89,North,0,0.4,0.4,40,0.00,,CLR,0.00,VWS V14.01,2013-08-07 22:00:00,
2013-08-07 17:02:00,83.1,55.6,29.89,NNW,338,4.4,4.4,39,0.00,,FEW045,0.00,VWS V14.01,2013-08-07 22:02:00,
2013-08-07 17:04:00,83.1,54.9,29.89,North,0,0.0,0.0,38,0.00,,CLR,0.00,VWS V14.01,2013-08-07 22:04:00,
2013-08-07 17:06:00,83.1,54.9,29.88,North,0,0.0,0.0,38,0.00,,FEW045,0.00,VWS V14.01,2013-08-07 22:06:00,
2013-08-07 17:07:00,83.1,54.9,29.88,NNW,338,0.0,0.0,38,0.00,,FEW045,0.00,VWS V14.01,2013-08-07 22:07:00,
2013-08-07 17:08:00,83.1,54.9,29.88,NNW,338,0.0,0.0,38,0.00,,FEW045,0.00,VWS V14.01,2013-08-07 22:08:00,
2013-08-07 17:10:00,83.3,55.8,29.88,NNW,338,0.0,2.6,39,0.00,,CLR,0.00,VWS V14.01,2013-08-07 22:10:00,
2013-08-07 17:12:00,83.3,55.1,29.89,NNW,338,2.6,2.6,38,0.00,,FEW045,0.00,VWS V14.01,2013-08-07 22:12:00,
2013-08-07 17:13:00,83.3,55.1,29.88,NNW,338,0.0,0.0,38,0.00,,FEW045,0.00,VWS V14.01,2013-08-07 22:13:00,
2013-08-07 17:14:00,83.3,54.3,29.89,North,0,0.0,0.0,37,0.00,,FEW045,0.00,VWS V14.01,2013-08-07 22:14:00,
2013-08-07 17:16:00,83.3,54.3,29.89,NNW,338,0.0,0.0,37,0.00,,CLR,0.00,VWS V14.01,2013-08-07 22:16:00,
2013-08-07 17:17:00,83.3,54.3,29.89,NNW,338,0.0,0.0,37,0.00,,FEW045,0.00,VWS V14.01,2013-08-07 22:17:00,
2013-08-07 17:18:00,83.1,54.9,29.89,NNW,338,0.0,0.0,38,0.00,,FEW045,0.00,VWS V14.01,2013-08-07 22:18:00,
2013-08-07 17:19:00,83.1,54.9,29.89,West,270,0.0,0.0,38,0.00,,FEW045,0.00,VWS V14.01,2013-08-07 22:19:00,
2013-08-07 17:20:00,83.1,55.6,29.88,North,0,0.0,0.0,39,0.00,,CLR,0.00,VWS V14.01,2013-08-07 22:20:00,
2013-08-07 17:22:00,83.3,55.8,29.89,NNW,338,0.0,0.0,39,0.00,,FEW045,0.00,VWS V14.01,2013-08-07 22:22:00,
2013-08-07 17:23:00,83.3,55.8,29.89,NNW,338,0.0,0.0,39,0.00,,FEW045,0.00,VWS V14.01,2013-08-07 22:23:00,
2013-08-07 17:24:00,83.1,54.9,29.89,NNW,338,0.0,0.0,38,0.00,,FEW045,0.00,VWS V14.01,2013-08-07 22:24:00,
2013-08-07 17:26:00,82.7,55.2,29.89,North,0,0.0,0.0,39,0.00,,CLR,0.00,VWS V14.01,2013-08-07 22:26:00,
2013-08-07 17:28:00,82.7,55.2,29.89,NNW,338,0.0,0.0,39,0.00,,FEW045,0.00,VWS V14.01,2013-08-07 22:28:00,
2013-08-07 17:29:00,82.9,55.4,29.88,NNW,338,0.0,0.0,39,0.00,,FEW045,0.00,VWS V14.01,2013-08-07 22:29:00,
2013-08-07 17:30:00,82.9,55.4,29.88,NNW,338,0.0,0.0,39,0.00,,FEW045,0.00,VWS V14.01,2013-08-07 22:30:00,
2013-08-07 17:31:00,82.7,55.2,29.89,NNW,338,0.0,0.0,39,0.00,,FEW045,0.00,VWS V14.01,2013-08-07 22:31:00,
2013-08-07 17:32:00,82.7,55.2,29.89,North,0,0.0,0.0,39,0.00,,CLR,0.00,VWS V14.01,2013-08-07 22:32:00,
2013-08-07 17:34:00,82.7,55.2,29.88,NNW,338,0.0,0.0,39,0.00,,CLR,0.00,VWS V14.01,2013-08-07 22:34:00,
2013-08-07 17:35:00,82.7,55.2,29.88,NNW,338,0.0,0.0,39,0.00,,FEW045,0.00,VWS V14.01,2013-08-07 22:35:00,
2013-08-07 17:36:00,82.7,55.2,29.89,NNW,338,0.0,0.0,39,0.00,,FEW045,0.00,VWS V14.01,2013-08-07 22:36:00,
2013-08-07 17:38:00,82.7,55.2,29.89,North,0,0.0,0.0,39,0.00,,FEW045,0.00,VWS V14.01,2013-08-07 22:38:00,
2013-08-07 17:39:00,82.7,55.2,29.89,North,0,0.0,0.0,39,0.00,,FEW045,0.00,VWS V14.01,2013-08-07 22:39:00,
2013-08-07 17:40:00,82.7,56.0,29.89,WNW,292,0.0,0.0,40,0.00,,BKN047,0.00,VWS V14.01,2013-08-07 22:40:00,
2013-08-07 17:42:00,82.7,55.2,29.89,North,0,0.0,0.0,39,0.00,,BKN047,0.00,VWS V14.01,2013-08-07 22:42:00,
2013-08-07 17:44:00,82.9,56.1,29.89,North,0,0.0,0.0,40,0.00,,BKN047,0.00,VWS V14.01,2013-08-07 22:44:00,
2013-08-07 17:45:00,83.1,56.3,29.89,North,0,0.0,0.0,40,0.00,,BKN047,0.00,VWS V14.01,2013-08-07 22:45:00,
2013-08-07 17:46:00,83.1,56.3,29.89,North,0,0.0,0.0,40,0.00,,BKN047,0.00,VWS V14.01,2013-08-07 22:46:00,
2013-08-07 17:47:00,83.1,56.3,29.88,North,0,0.0,0.0,40,0.00,,BKN047,0.00,VWS V14.01,2013-08-07 22:47:00,
2013-08-07 17:48:00,83.1,56.3,29.88,North,0,0.0,0.0,40,0.00,,CLR,0.00,VWS V14.01,2013-08-07 22:48:00,
2013-08-07 17:50:00,83.1,55.6,29.89,NNE,22,0.0,0.0,39,0.00,,BKN047,0.00,VWS V14.01,2013-08-07 22:50:00,
2013-08-07 17:51:00,82.9,55.4,29.89,NNE,22,0.0,0.0,39,0.00,,BKN047,0.00,VWS V14.01,2013-08-07 22:51:00,
2013-08-07 17:52:00,82.9,55.4,29.88,NNW,338,0.0,0.0,39,0.00,,BKN047,0.00,VWS V14.01,2013-08-07 22:52:00,
2013-08-07 17:54:00,82.9,55.4,29.89,NNW,338,0.0,0.0,39,0.00,,BKN047,0.00,VWS V14.01,2013-08-07 22:54:00,
2013-08-07 17:56:00,83.1,54.9,29.89,NNW,338,0.0,0.0,38,0.00,,BKN047,0.00,VWS V14.01,2013-08-07 22:56:00,
2013-08-07 17:57:00,83.1,54.9,29.89,NNW,338,0.0,0.0,38,0.00,,BKN047,0.00,VWS V14.01,2013-08-07 22:57:00,
2013-08-07 17:58:00,83.3,55.1,29.89,North,0,0.0,0.0,38,0.00,,CLR,0.00,VWS V14.01,2013-08-07 22:58:00,
2013-08-07 18:00:00,83.3,55.1,29.89,North,0,4.8,4.8,38,0.00,,BKN047,0.00,VWS V14.01,2013-08-07 23:00:00,
2013-08-07 18:01:00,83.3,54.3,29.89,North,0,0.0,4.8,37,0.00,,BKN047,0.00,VWS V14.01,2013-08-07 23:01:00,
2013-08-07 18:02:00,83.3,54.3,29.89,NW,315,0.0,4.8,37,0.00,,BKN047,0.00,VWS V14.01,2013-08-07 23:02:00,
2013-08-07 18:04:00,83.4,54.4,29.89,NNW,338,0.0,0.0,37,0.00,,CLR,0.00,VWS V14.01,2013-08-07 23:04:00,
2013-08-07 18:05:00,83.8,54.8,29.89,NNW,338,0.0,0.0,37,0.00,,BKN047,0.00,VWS V14.01,2013-08-07 23:05:00,
2013-08-07 18:06:00,83.8,54.8,29.89,NNW,338,0.0,0.0,37,0.00,,BKN047,0.00,VWS V14.01,2013-08-07 23:06:00,
2013-08-07 18:07:00,84.0,55.0,29.89,North,0,0.0,0.0,37,0.00,,BKN047,0.00,VWS V14.01,2013-08-07 23:07:00,
2013-08-07 18:08:00,84.3,55.2,29.89,NNW,338,0.0,0.0,37,0.00,,BKN047,0.00,VWS V14.01,2013-08-07 23:08:00,
2013-08-07 18:09:00,84.3,55.2,29.89,NNW,338,0.0,0.0,37,0.00,,BKN047,0.00,VWS V14.01,2013-08-07 23:09:00,
2013-08-07 18:10:00,84.3,55.2,29.89,NNE,22,0.0,0.0,37,0.00,,CLR,0.00,VWS V14.01,2013-08-07 23:10:00,
2013-08-07 18:12:00,84.3,55.2,29.89,NNE,22,0.0,0.0,37,0.00,,BKN047,0.00,VWS V14.01,2013-08-07 23:12:00,
2013-08-07 18:14:00,84.3,55.2,29.89,North,0,0.0,0.0,37,0.00,,BKN047,0.00,VWS V14.01,2013-08-07 23:14:00,
2013-08-07 18:16:00,83.8,54.8,29.89,NW,315,1.2,1.2,37,0.00,,CLR,0.00,VWS V14.01,2013-08-07 23:16:00,
2013-08-07 18:17:00,83.8,54.8,29.89,North,0,0.0,1.2,37,0.00,,BKN047,0.00,VWS V14.01,2013-08-07 23:17:00,
2013-08-07 18:18:00,83.6,55.3,29.89,NNW,338,0.0,1.2,38,0.00,,BKN047,0.00,VWS V14.01,2013-08-07 23:18:00,
2013-08-07 18:20:00,83.6,55.3,29.89,NNW,338,0.0,0.0,38,0.00,,CLR,0.00,VWS V14.01,2013-08-07 23:20:00,
2013-08-07 18:21:00,83.6,55.3,29.89,NNW,338,0.0,0.0,38,0.00,,BKN047,0.00,VWS V14.01,2013-08-07 23:21:00,
2013-08-07 18:22:00,83.4,55.2,29.90,NNW,338,0.0,0.0,38,0.00,,CLR,0.00,VWS V14.01,2013-08-07 23:22:00,
2013-08-07 18:23:00,83.4,55.2,29.90,North,0,8.0,8.0,38,0.00,,BKN047,0.00,VWS V14.01,2013-08-07 23:23:00,
2013-08-07 18:24:00,83.3,55.1,29.90,NNW,338,0.0,8.0,38,0.00,,BKN047,0.00,VWS V14.01,2013-08-07 23:24:00,
2013-08-07 18:26:00,83.3,54.3,29.90,NNW,338,0.0,0.0,37,0.00,,CLR,0.00,VWS V14.01,2013-08-07 23:26:00,
2013-08-07 18:28:00,83.1,54.9,29.90,NNW,338,0.0,0.0,38,0.00,,BKN047,0.00,VWS V14.01,2013-08-07 23:28:00,
2013-08-07 18:29:00,83.1,54.9,29.90,NNW,338,0.0,0.0,38,0.00,,BKN047,0.00,VWS V14.01,2013-08-07 23:29:00,
2013-08-07 18:30:00,83.1,55.6,29.90,WNW,292,0.0,0.0,39,0.00,,BKN047,0.00,VWS V14.01,2013-08-07 23:30:00,
2013-08-07 18:32:00,82.9,55.4,29.90,WNW,292,0.0,0.0,39,0.00,,CLR,0.00,VWS V14.01,2013-08-07 23:32:00,
2013-08-07 18:33:00,82.7,55.2,29.89,North,0,0.0,0.0,39,0.00,,BKN047,0.00,VWS V14.01,2013-08-07 23:33:00,
2013-08-07 18:34:00,82.7,55.2,29.90,West,270,0.0,0.0,39,0.00,,BKN047,0.00,VWS V14.01,2013-08-07 23:34:00,
2013-08-07 18:35:00,82.7,55.2,29.90,WNW,292,0.0,0.0,39,0.00,,BKN047,0.00,VWS V14.01,2013-08-07 23:35:00,
2013-08-07 18:36:00,82.7,55.2,29.90,NW,315,0.0,0.0,39,0.00,,BKN047,0.00,VWS V14.01,2013-08-07 23:36:00,
2013-08-07 18:37:00,82.5,55.1,29.90,NW,315,2.6,2.6,39,0.00,,BKN047,0.00,VWS V14.01,2013-08-07 23:37:00,
2013-08-07 18:38:00,82.5,55.1,29.90,NNW,338,0.0,2.6,39,0.00,,CLR,0.00,VWS V14.01,2013-08-07 23:38:00,
2013-08-07 18:40:00,82.5,55.8,29.90,NNW,338,0.0,0.0,40,0.00,,CLR,0.00,VWS V14.01,2013-08-07 23:40:00,
2013-08-07 18:41:00,82.5,55.8,29.90,WNW,292,0.0,0.0,40,0.00,,FEW047,0.00,VWS V14.01,2013-08-07 23:41:00,
2013-08-07 18:42:00,82.5,55.8,29.90,North,0,0.0,0.0,40,0.00,,CLR,0.00,VWS V14.01,2013-08-07 23:42:00,
2013-08-07 18:43:00,82.4,55.7,29.90,NNW,338,0.0,0.0,40,0.00,,FEW047,0.00,VWS V14.01,2013-08-07 23:43:00,
2013-08-07 18:44:00,82.4,55.7,29.90,NNW,338,0.0,0.0,40,0.00,,FEW047,0.00,VWS V14.01,2013-08-07 23:44:00,
2013-08-07 18:45:00,82.2,55.5,29.90,NNW,338,0.0,0.0,40,0.00,,FEW047,0.00,VWS V14.01,2013-08-07 23:45:00,
2013-08-07 18:46:00,82.2,56.2,29.90,NNW,338,0.0,0.0,41,0.00,,FEW047,0.00,VWS V14.01,2013-08-07 23:46:00,
2013-08-07 18:48:00,82.0,56.0,29.90,NW,315,0.0,0.0,41,0.00,,CLR,0.00,VWS V14.01,2013-08-07 23:48:00,
2013-08-07 18:49:00,81.8,55.8,29.90,NW,315,0.0,0.0,41,0.00,,FEW047,0.00,VWS V14.01,2013-08-07 23:49:00,
2013-08-07 18:50:00,81.8,55.8,29.90,NNW,338,0.0,0.0,41,0.00,,FEW047,0.00,VWS V14.01,2013-08-07 23:50:00,
2013-08-07 18:52:00,81.8,55.8,29.90,NNW,338,0.0,0.0,41,0.00,,FEW047,0.00,VWS V14.01,2013-08-07 23:52:00,
2013-08-07 18:53:00,81.5,55.5,29.90,WNW,292,0.0,0.0,41,0.00,,FEW047,0.00,VWS V14.01,2013-08-07 23:53:00,
2013-08-07 18:54:00,81.5,55.6,29.91,WNW,292,0.0,0.0,41,0.00,,CLR,0.00,VWS V14.01,2013-08-07 23:54:00,
2013-08-07 18:55:00,81.3,56.0,29.90,North,0,0.0,0.0,42,0.00,,FEW047,0.00,VWS V14.01,2013-08-07 23:55:00,
2013-08-07 18:56:00,81.1,55.9,29.91,North,0,0.0,0.0,42,0.00,,FEW047,0.00,VWS V14.01,2013-08-07 23:56:00,
2013-08-07 18:58:00,80.7,55.5,29.91,WNW,292,0.0,0.0,42,0.00,,FEW047,0.00,VWS V14.01,2013-08-07 23:58:00,
2013-08-07 19:00:00,80.7,55.5,29.91,NW,315,0.0,0.0,42,0.00,,FEW047,0.00,VWS V14.01,2013-08-08 00:00:00,
2013-08-07 19:02:00,80.4,55.9,29.91,NNW,338,0.0,0.0,43,0.00,,FEW047,0.00,VWS V14.01,2013-08-08 00:02:00,
2013-08-07 19:04:00,80.4,55.9,29.91,North,0,0.0,0.0,43,0.00,,CLR,0.00,VWS V14.01,2013-08-08 00:04:00,
2013-08-07 19:06:00,80.4,56.5,29.91,NNW,338,0.0,0.0,44,0.00,,FEW047,0.00,VWS V14.01,2013-08-08 00:06:00,
2013-08-07 19:07:00,80.2,56.3,29.91,NNW,338,0.0,0.0,44,0.00,,FEW047,0.00,VWS V14.01,2013-08-08 00:07:00,
2013-08-07 19:08:00,80.2,56.3,29.91,NNW,338,1.2,1.2,44,0.00,,CLR,0.00,VWS V14.01,2013-08-08 00:08:00,
2013-08-07 19:10:00,80.0,56.2,29.91,NNW,338,0.0,1.2,44,0.00,,CLR,0.00,VWS V14.01,2013-08-08 00:10:00,
2013-08-07 19:12:00,80.0,56.8,29.91,NNW,338,0.0,0.0,45,0.00,,FEW045,0.00,VWS V14.01,2013-08-08 00:12:00,
2013-08-07 19:14:00,80.0,56.8,29.91,NNW,338,0.0,0.0,45,0.00,,CLR,0.00,VWS V14.01,2013-08-08 00:14:00,
2013-08-07 19:15:00,79.8,56.6,29.91,NNW,338,0.0,0.0,45,0.00,,FEW045,0.00,VWS V14.01,2013-08-08 00:15:00,
2013-08-07 19:16:00,79.7,56.5,29.91,NNW,338,0.0,0.0,45,0.00,,CLR,0.00,VWS V14.01,2013-08-08 00:16:00,
2013-08-07 19:17:00,79.7,57.1,29.91,North,0,0.0,0.0,46,0.00,,FEW045,0.00,VWS V14.01,2013-08-08 00:17:00,
2013-08-07 19:18:00,79.5,57.5,29.91,North,0,0.0,0.0,47,0.00,,FEW045,0.00,VWS V14.01,2013-08-08 00:18:00,
2013-08-07 19:20:00,79.3,57.3,29.91,NNW,338,0.0,0.0,47,0.00,,FEW045,0.00,VWS V14.01,2013-08-08 00:20:00,
2013-08-07 19:21:00,79.5,57.5,29.91,NNW,338,0.0,0.0,47,0.00,,FEW045,0.00,VWS V14.01,2013-08-08 00:21:00,
2013-08-07 19:22:00,79.1,57.8,29.91,NNW,338,0.0,0.0,48,0.00,,CLR,0.00,VWS V14.01,2013-08-08 00:22:00,
2013-08-07 19:23:00,78.9,57.6,29.91,NNW,338,0.0,0.0,48,0.00,,FEW045,0.00,VWS V14.01,2013-08-08 00:23:00,
2013-08-07 19:24:00,78.9,57.6,29.92,NNW,338,0.0,0.0,48,0.00,,CLR,0.00,VWS V14.01,2013-08-08 00:24:00,
2013-08-07 19:26:00,78.9,58.1,29.92,NNW,338,0.0,0.0,49,0.00,,FEW045,0.00,VWS V14.01,2013-08-08 00:26:00,
2013-08-07 19:27:00,78.9,58.1,29.92,NNW,338,0.0,0.0,49,0.00,,FEW045,0.00,VWS V14.01,2013-08-08 00:27:00,
2013-08-07 19:28:00,78.8,58.0,29.92,NNW,338,0.0,0.0,49,0.00,,CLR,0.00,VWS V14.01,2013-08-08 00:28:00,
2013-08-07 19:29:00,78.8,58.0,29.92,NNW,338,0.0,0.0,49,0.00,,FEW045,0.00,VWS V14.01,2013-08-08 00:29:00,
2013-08-07 19:30:00,78.6,57.9,29.92,NNW,338,2.6,2.6,49,0.00,,CLR,0.00,VWS V14.01,2013-08-08 00:30:00,
2013-08-07 19:32:00,78.6,57.9,29.92,North,0,0.0,2.6,49,0.00,,FEW045,0.00,VWS V14.01,2013-08-08 00:32:00,
2013-08-07 19:34:00,78.6,57.9,29.92,NNW,338,0.0,0.0,49,0.00,,FEW045,0.00,VWS V14.01,2013-08-08 00:34:00,
2013-08-07 19:36:00,78.4,57.7,29.92,NNW,338,0.0,0.0,49,0.00,,FEW045,0.00,VWS V14.01,2013-08-08 00:36:00,
2013-08-07 19:37:00,78.4,57.7,29.92,NNW,338,0.0,0.0,49,0.00,,FEW045,0.00,VWS V14.01,2013-08-08 00:37:00,
2013-08-07 19:38:00,78.2,57.5,29.92,NNW,338,0.0,0.0,49,0.00,,FEW045,0.00,VWS V14.01,2013-08-08 00:38:00,
2013-08-07 19:40:00,78.0,57.3,29.92,NNW,338,0.0,0.0,49,0.00,,FEW045,0.00,VWS V14.01,2013-08-08 00:40:00,
2013-08-07 19:42:00,77.7,57.0,29.92,NNE,22,0.0,0.0,49,0.00,,FEW045,0.00,VWS V14.01,2013-08-08 00:42:00,
2013-08-07 19:44:00,77.7,57.6,29.92,North,0,0.0,0.0,50,0.00,,FEW045,0.00,VWS V14.01,2013-08-08 00:44:00,
2013-08-07 19:46:00,77.5,57.4,29.92,NNW,338,0.0,0.0,50,0.00,,FEW045,0.00,VWS V14.01,2013-08-08 00:46:00,
2013-08-07 19:47:00,77.3,57.8,29.93,NNW,338,0.0,0.0,51,0.00,,FEW045,0.00,VWS V14.01,2013-08-08 00:47:00,
2013-08-07 19:48:00,77.5,58.0,29.93,NNW,338,0.0,0.0,51,0.00,,FEW045,0.00,VWS V14.01,2013-08-08 00:48:00,
2013-08-07 19:50:00,77.3,57.8,29.93,NNW,338,0.0,0.0,51,0.00,,FEW045,0.00,VWS V14.01,2013-08-08 00:50:00,
2013-08-07 19:52:00,77.3,57.8,29.93,NNW,338,0.0,0.0,51,0.00,,FEW045,0.00,VWS V14.01,2013-08-08 00:52:00,
2013-08-07 19:54:00,77.3,57.8,29.93,NNW,338,0.0,0.0,51,0.00,,FEW045,0.00,VWS V14.01,2013-08-08 00:54:00,
2013-08-07 19:56:00,77.1,57.6,29.93,NNW,338,0.0,0.0,51,0.00,,FEW045,0.00,VWS V14.01,2013-08-08 00:56:00,
2013-08-07 19:57:00,77.1,57.6,29.93,NNW,338,0.0,0.0,51,0.00,,FEW045,0.00,VWS V14.01,2013-08-08 00:57:00,
2013-08-07 19:58:00,77.1,57.6,29.93,NNW,338,0.0,0.0,51,0.00,,FEW045,0.00,VWS V14.01,2013-08-08 00:58:00,
2013-08-07 19:59:00,76.8,57.3,29.93,NNW,338,0.0,0.0,51,0.00,,FEW045,0.00,VWS V14.01,2013-08-08 00:59:00,
2013-08-07 20:00:00,76.4,57.0,29.93,North,0,0.0,0.0,51,0.00,,CLR,0.00,VWS V14.01,2013-08-08 01:00:00,
2013-08-07 20:01:00,76.4,57.0,29.93,North,0,0.0,0.0,51,0.00,,FEW045,0.00,VWS V14.01,2013-08-08 01:01:00,
2013-08-07 20:02:00,76.2,56.8,29.93,NNW,338,0.0,0.0,51,0.00,,FEW045,0.00,VWS V14.01,2013-08-08 01:02:00,
2013-08-07 20:04:00,76.1,56.7,29.93,North,0,0.0,0.0,51,0.00,,FEW045,0.00,VWS V14.01,2013-08-08 01:04:00,
2013-08-07 20:05:00,76.1,56.7,29.93,NNW,338,0.0,0.0,51,0.00,,FEW045,0.00,VWS V14.01,2013-08-08 01:05:00,
2013-08-07 20:06:00,75.9,56.5,29.93,NNW,338,0.0,0.0,51,0.00,,FEW045,0.00,VWS V14.01,2013-08-08 01:06:00,
2013-08-07 20:07:00,75.9,57.0,29.93,NNW,338,0.0,0.0,52,0.00,,FEW045,0.00,VWS V14.01,2013-08-08 01:07:00,
2013-08-07 20:08:00,75.9,57.6,29.93,NNW,338,0.0,0.0,53,0.00,,CLR,0.00,VWS V14.01,2013-08-08 01:08:00,
2013-08-07 20:09:00,75.9,57.6,29.93,NNW,338,0.0,0.0,53,0.00,,FEW045,0.00,VWS V14.01,2013-08-08 01:09:00,
2013-08-07 20:10:00,75.9,57.6,29.93,NNW,338,0.0,0.0,53,0.00,,FEW045,0.00,VWS V14.01,2013-08-08 01:10:00,
2013-08-07 20:12:00,75.9,57.6,29.93,NNW,338,0.0,0.0,53,0.00,,FEW045,0.00,VWS V14.01,2013-08-08 01:12:00,
2013-08-07 20:14:00,75.7,57.9,29.93,North,0,0.0,0.0,54,0.00,,FEW045,0.00,VWS V14.01,2013-08-08 01:14:00,
2013-08-07 20:16:00,75.5,57.7,29.93,NNW,338,0.0,0.0,54,0.00,,FEW045,0.00,VWS V14.01,2013-08-08 01:16:00,
2013-08-07 20:17:00,75.5,57.7,29.93,NNW,338,0.0,0.0,54,0.00,,FEW045,0.00,VWS V14.01,2013-08-08 01:17:00,
2013-08-07 20:18:00,75.5,57.7,29.93,NNW,338,0.0,0.0,54,0.00,,CLR,0.00,VWS V14.01,2013-08-08 01:18:00,
2013-08-07 20:20:00,75.3,57.0,29.94,North,0,0.0,0.0,53,0.00,,CLR,0.00,VWS V14.01,2013-08-08 01:20:00,
2013-08-07 20:21:00,75.3,57.0,29.94,North,0,0.0,0.0,53,0.00,,FEW045,0.00,VWS V14.01,2013-08-08 01:21:00,
2013-08-07 20:22:00,75.2,56.9,29.94,NNW,338,0.0,0.0,53,0.00,,FEW045,0.00,VWS V14.01,2013-08-08 01:22:00,
2013-08-07 20:24:00,75.0,57.2,29.94,NNW,338,0.0,0.0,54,0.00,,FEW045,0.00,VWS V14.01,2013-08-08 01:24:00,
2013-08-07 20:25:00,74.8,57.1,29.94,NNW,338,0.0,0.0,54,0.00,,FEW045,0.00,VWS V14.01,2013-08-08 01:25:00,
2013-08-07 20:26:00,74.6,56.9,29.94,North,0,0.0,0.0,54,0.00,,CLR,0.00,VWS V14.01,2013-08-08 01:26:00,
2013-08-07 20:28:00,74.6,56.9,29.94,NNW,338,0.0,0.0,54,0.00,,CLR,0.00,VWS V14.01,2013-08-08 01:28:00,
2013-08-07 20:29:00,74.6,56.9,29.94,NNW,338,0.0,0.0,54,0.00,,FEW045,0.00,VWS V14.01,2013-08-08 01:29:00,
2013-08-07 20:30:00,74.4,57.2,29.94,NNW,338,0.0,0.0,55,0.00,,FEW045,0.00,VWS V14.01,2013-08-08 01:30:00,
2013-08-07 20:31:00,74.4,57.2,29.94,NNW,338,0.0,0.0,55,0.00,,FEW045,0.00,VWS V14.01,2013-08-08 01:31:00,
2013-08-07 20:32:00,74.4,57.2,29.94,NNW,338,0.0,0.0,55,0.00,,FEW045,0.00,VWS V14.01,2013-08-08 01:32:00,
2013-08-07 20:33:00,74.4,57.2,29.94,NNW,338,0.0,0.0,55,0.00,,FEW045,0.00,VWS V14.01,2013-08-08 01:33:00,
2013-08-07 20:34:00,74.4,57.2,29.94,NNW,338,0.0,0.0,55,0.00,,FEW045,0.00,VWS V14.01,2013-08-08 01:34:00,
2013-08-07 20:36:00,74.4,57.2,29.94,NNW,338,0.0,0.0,55,0.00,,FEW045,0.00,VWS V14.01,2013-08-08 01:36:00,
2013-08-07 20:38:00,74.3,57.1,29.95,East,90,0.0,0.0,55,0.00,,CLR,0.00,VWS V14.01,2013-08-08 01:38:00,
2013-08-07 20:40:00,74.3,57.1,29.95,North,0,0.0,0.0,55,0.00,,SCT044,0.00,VWS V14.01,2013-08-08 01:40:00,
2013-08-07 20:41:00,74.1,56.9,29.95,North,0,0.0,0.0,55,0.00,,SCT044,0.00,VWS V14.01,2013-08-08 01:41:00,
2013-08-07 20:42:00,74.1,57.4,29.95,NNW,338,0.0,0.0,56,0.00,,SCT044,0.00,VWS V14.01,2013-08-08 01:42:00,
2013-08-07 20:44:00,73.7,57.0,29.95,NNW,338,0.0,0.0,56,0.00,,CLR,0.00,VWS V14.01,2013-08-08 01:44:00,
2013-08-07 20:45:00,73.7,57.0,29.95,NNW,338,0.0,0.0,56,0.00,,SCT044,0.00,VWS V14.01,2013-08-08 01:45:00,
2013-08-07 20:46:00,73.7,57.0,29.95,NNW,338,0.0,0.0,56,0.00,,SCT044,0.00,VWS V14.01,2013-08-08 01:46:00,
2013-08-07 20:48:00,73.5,56.9,29.95,NNW,338,0.0,0.0,56,0.00,,SCT044,0.00,VWS V14.01,2013-08-08 01:48:00,
2013-08-07 20:50:00,73.5,57.3,29.95,North,0,0.0,0.0,57,0.00,,CLR,0.00,VWS V14.01,2013-08-08 01:50:00,
2013-08-07 20:51:00,73.5,57.3,29.95,North,0,0.0,0.0,57,0.00,,SCT044,0.00,VWS V14.01,2013-08-08 01:51:00,
2013-08-07 20:52:00,73.4,57.3,29.96,NNW,338,0.0,0.0,57,0.00,,SCT044,0.00,VWS V14.01,2013-08-08 01:52:00,
2013-08-07 20:54:00,73.4,57.3,29.96,NNW,338,0.0,0.0,57,0.00,,SCT044,0.00,VWS V14.01,2013-08-08 01:54:00,
2013-08-07 20:56:00,73.4,57.3,29.95,NNW,338,0.0,0.0,57,0.00,,SCT044,0.00,VWS V14.01,2013-08-08 01:56:00,
2013-08-07 20:58:00,73.4,57.3,29.96,NE,45,0.0,0.0,57,0.00,,CLR,0.00,VWS V14.01,2013-08-08 01:58:00,
2013-08-07 21:00:00,73.4,57.3,29.96,North,0,0.0,0.0,57,0.00,,SCT044,0.00,VWS V14.01,2013-08-08 02:00:00,
2013-08-07 21:02:00,73.2,57.1,29.96,NNW,338,0.0,0.0,57,0.00,,SCT044,0.00,VWS V14.01,2013-08-08 02:02:00,
2013-08-07 21:03:00,73.2,57.1,29.96,NNW,338,0.0,0.0,57,0.00,,SCT044,0.00,VWS V14.01,2013-08-08 02:03:00,
2013-08-07 21:04:00,73.0,56.9,29.96,NNW,338,0.0,0.0,57,0.00,,SCT044,0.00,VWS V14.01,2013-08-08 02:04:00,
2013-08-07 21:05:00,73.0,56.9,29.96,NNW,338,0.0,0.0,57,0.00,,SCT044,0.00,VWS V14.01,2013-08-08 02:05:00,
2013-08-07 21:06:00,73.0,56.9,29.96,NNW,338,0.0,0.0,57,0.00,,CLR,0.00,VWS V14.01,2013-08-08 02:06:00,
2013-08-07 21:08:00,73.0,56.9,29.96,North,0,0.0,0.0,57,0.00,,SCT044,0.00,VWS V14.01,2013-08-08 02:08:00,
2013-08-07 21:10:00,72.8,56.7,29.96,NNE,22,0.0,0.0,57,0.00,,SCT044,0.00,VWS V14.01,2013-08-08 02:10:00,
2013-08-07 21:11:00,72.8,56.7,29.96,NNW,338,0.0,0.0,57,0.00,,SCT044,0.00,VWS V14.01,2013-08-08 02:11:00,
2013-08-07 21:12:00,72.8,56.7,29.96,NNW,338,0.0,0.0,57,0.00,,CLR,0.00,VWS V14.01,2013-08-08 02:12:00,
2013-08-07 21:13:00,72.8,56.7,29.96,NNW,338,0.0,0.0,57,0.00,,SCT044,0.00,VWS V14.01,2013-08-08 02:13:00,
2013-08-07 21:14:00,72.8,56.7,29.96,NNW,338,0.0,0.0,57,0.00,,SCT044,0.00,VWS V14.01,2013-08-08 02:14:00,
2013-08-07 21:16:00,72.8,56.7,29.96,North,0,0.0,0.0,57,0.00,,SCT044,0.00,VWS V14.01,2013-08-08 02:16:00,
2013-08-07 21:17:00,72.8,56.7,29.96,North,0,0.0,0.0,57,0.00,,SCT044,0.00,VWS V14.01,2013-08-08 02:17:00,
2013-08-07 21:18:00,72.8,56.7,29.96,North,0,0.0,0.0,57,0.00,,SCT044,0.00,VWS V14.01,2013-08-08 02:18:00,
2013-08-07 21:20:00,72.8,56.7,29.96,North,0,0.0,0.0,57,0.00,,SCT044,0.00,VWS V14.01,2013-08-08 02:20:00,
2013-08-07 21:22:00,72.6,56.5,29.96,North,0,0.0,0.0,57,0.00,,CLR,0.00,VWS V14.01,2013-08-08 02:22:00,
2013-08-07 21:23:00,72.8,56.7,29.96,NNE,22,0.0,0.0,57,0.00,,SCT044,0.00,VWS V14.01,2013-08-08 02:23:00,
2013-08-07 21:24:00,72.6,56.5,29.96,North,0,0.0,0.0,57,0.00,,SCT044,0.00,VWS V14.01,2013-08-08 02:24:00,
2013-08-07 21:26:00,72.5,56.4,29.96,NNW,338,0.0,0.0,57,0.00,,SCT044,0.00,VWS V14.01,2013-08-08 02:26:00,
2013-08-07 21:28:00,72.3,56.2,29.96,North,0,0.0,0.0,57,0.00,,SCT044,0.00,VWS V14.01,2013-08-08 02:28:00,
2013-08-07 21:29:00,72.3,56.2,29.96,North,0,0.0,0.0,57,0.00,,SCT044,0.00,VWS V14.01,2013-08-08 02:29:00,
2013-08-07 21:30:00,72.3,56.7,29.96,NE,45,0.0,0.0,58,0.00,,SCT044,0.00,VWS V14.01,2013-08-08 02:30:00,
2013-08-07 21:32:00,72.3,56.7,29.96,North,0,0.0,0.0,58,0.00,,CLR,0.00,VWS V14.01,2013-08-08 02:32:00,
2013-08-07 21:34:00,72.1,56.5,29.96,North,0,0.0,0.0,58,0.00,,SCT044,0.00,VWS V14.01,2013-08-08 02:34:00,
2013-08-07 21:35:00,71.9,56.3,29.96,North,0,0.0,0.0,58,0.00,,SCT044,0.00,VWS V14.01,2013-08-08 02:35:00,
2013-08-07 21:36:00,72.1,56.5,29.96,NNW,338,0.0,0.0,58,0.00,,SCT044,0.00,VWS V14.01,2013-08-08 02:36:00,
2013-08-07 21:38:00,72.1,56.5,29.96,NNW,338,0.0,0.0,58,0.00,,SCT044,0.00,VWS V14.01,2013-08-08 02:38:00,
2013-08-07 21:39:00,71.9,56.3,29.96,NNW,338,0.0,0.0,58,0.00,,SCT044,0.00,VWS V14.01,2013-08-08 02:39:00,
2013-08-07 21:40:00,71.9,56.3,29.96,NNW,338,0.0,0.0,58,0.00,,CLR,0.00,VWS V14.01,2013-08-08 02:40:00,
2013-08-07 21:42:00,71.9,56.3,29.97,North,0,0.0,0.0,58,0.00,,CLR,0.00,VWS V14.01,2013-08-08 02:42:00,
2013-08-07 21:43:00,71.9,56.3,29.97,North,0,0.0,0.0,58,0.00,,CLR,0.00,VWS V14.01,2013-08-08 02:43:00,
2013-08-07 21:44:00,71.9,56.3,29.96,North,0,0.0,0.0,58,0.00,,CLR,0.00,VWS V14.01,2013-08-08 02:44:00,
2013-08-07 21:45:00,71.9,56.8,29.96,North,0,0.0,0.0,59,0.00,,CLR,0.00,VWS V14.01,2013-08-08 02:45:00,
2013-08-07 21:46:00,71.9,56.3,29.97,NNE,22,0.0,0.0,58,0.00,,CLR,0.00,VWS V14.01,2013-08-08 02:46:00,
2013-08-07 21:48:00,71.7,56.6,29.97,North,0,0.0,0.0,59,0.00,,CLR,0.00,VWS V14.01,2013-08-08 02:48:00,
2013-08-07 21:49:00,71.7,56.6,29.97,NNE,22,0.0,0.0,59,0.00,,CLR,0.00,VWS V14.01,2013-08-08 02:49:00,
2013-08-07 21:50:00,71.7,56.6,29.97,NNE,22,0.0,0.0,59,0.00,,CLR,0.00,VWS V14.01,2013-08-08 02:50:00,
2013-08-07 21:52:00,71.6,56.5,29.97,NNE,22,0.0,0.0,59,0.00,,CLR,0.00,VWS V14.01,2013-08-08 02:52:00,
2013-08-07 21:54:00,71.6,56.5,29.97,NNE,22,0.0,0.0,59,0.00,,CLR,0.00,VWS V14.01,2013-08-08 02:54:00,
2013-08-07 21:55:00,71.6,56.5,29.97,North,0,0.0,0.0,59,0.00,,CLR,0.00,VWS V14.01,2013-08-08 02:55:00,
2013-08-07 21:56:00,71.2,56.2,29.97,North,0,0.0,0.0,59,0.00,,CLR,0.00,VWS V14.01,2013-08-08 02:56:00,
2013-08-07 21:57:00,71.4,56.3,29.97,North,0,0.0,0.0,59,0.00,,CLR,0.00,VWS V14.01,2013-08-08 02:57:00,
2013-08-07 21:58:00,71.4,56.3,29.97,North,0,0.0,0.0,59,0.00,,CLR,0.00,VWS V14.01,2013-08-08 02:58:00,
2013-08-07 22:00:00,71.2,56.2,29.97,North,0,0.0,0.0,59,0.00,,CLR,0.00,VWS V14.01,2013-08-08 03:00:00,
2013-08-07 22:02:00,71.2,56.2,29.97,North,0,0.0,0.0,59,0.00,,CLR,0.00,VWS V14.01,2013-08-08 03:02:00,
2013-08-07 22:03:00,71.2,56.6,29.96,North,0,0.0,0.0,60,0.00,,CLR,0.00,VWS V14.01,2013-08-08 03:03:00,
2013-08-07 22:04:00,71.2,56.6,29.96,North,0,0.0,0.0,60,0.00,,CLR,0.00,VWS V14.01,2013-08-08 03:04:00,
2013-08-07 22:05:00,71.2,56.6,29.97,NNW,338,0.0,0.0,60,0.00,,CLR,0.00,VWS V14.01,2013-08-08 03:05:00,
2013-08-07 22:06:00,71.2,56.6,29.97,North,0,0.0,0.0,60,0.00,,CLR,0.00,VWS V14.01,2013-08-08 03:06:00,
2013-08-07 22:08:00,71.2,56.6,29.97,North,0,0.0,0.0,60,0.00,,CLR,0.00,VWS V14.01,2013-08-08 03:08:00,
2013-08-07 22:10:00,71.2,56.6,29.97,North,0,0.0,0.0,60,0.00,,CLR,0.00,VWS V14.01,2013-08-08 03:10:00,
2013-08-07 22:12:00,71.0,56.4,29.97,North,0,0.0,0.0,60,0.00,,CLR,0.00,VWS V14.01,2013-08-08 03:12:00,
2013-08-07 22:13:00,71.0,56.4,29.97,North,0,0.0,0.0,60,0.00,,CLR,0.00,VWS V14.01,2013-08-08 03:13:00,
2013-08-07 22:14:00,71.0,56.4,29.97,North,0,0.0,0.0,60,0.00,,CLR,0.00,VWS V14.01,2013-08-08 03:14:00,
2013-08-07 22:15:00,71.0,56.4,29.97,NNE,22,0.0,0.0,60,0.00,,CLR,0.00,VWS V14.01,2013-08-08 03:15:00,
2013-08-07 22:16:00,71.0,56.4,29.97,NNE,22,0.0,0.0,60,0.00,,CLR,0.00,VWS V14.01,2013-08-08 03:16:00,
2013-08-07 22:18:00,70.8,56.2,29.97,NNE,22,0.0,0.0,60,0.00,,CLR,0.00,VWS V14.01,2013-08-08 03:18:00,
2013-08-07 22:20:00,70.8,56.2,29.97,NNE,22,0.0,0.0,60,0.00,,CLR,0.00,VWS V14.01,2013-08-08 03:20:00,
2013-08-07 22:22:00,70.8,56.2,29.97,NNE,22,0.0,0.0,60,0.00,,CLR,0.00,VWS V14.01,2013-08-08 03:22:00,
2013-08-07 22:24:00,70.7,56.2,29.97,NNW,338,0.0,0.0,60,0.00,,CLR,0.00,VWS V14.01,2013-08-08 03:24:00,
2013-08-07 22:26:00,70.7,56.2,29.97,NNW,338,0.0,0.0,60,0.00,,CLR,0.00,VWS V14.01,2013-08-08 03:26:00,
2013-08-07 22:27:00,70.7,56.2,29.97,NNW,338,0.0,0.0,60,0.00,,CLR,0.00,VWS V14.01,2013-08-08 03:27:00,
2013-08-07 22:28:00,70.7,56.2,29.97,NNW,338,0.0,0.0,60,0.00,,CLR,0.00,VWS V14.01,2013-08-08 03:28:00,
2013-08-07 22:30:00,70.7,56.2,29.97,NNW,338,0.0,0.0,60,0.00,,CLR,0.00,VWS V14.01,2013-08-08 03:30:00,
2013-08-07 22:32:00,70.7,56.2,29.97,NNE,22,0.0,0.0,60,0.00,,CLR,0.00,VWS V14.01,2013-08-08 03:32:00,
2013-08-07 22:33:00,70.7,56.2,29.97,North,0,0.0,0.0,60,0.00,,CLR,0.00,VWS V14.01,2013-08-08 03:33:00,
2013-08-07 22:34:00,70.7,56.2,29.97,North,0,0.0,0.0,60,0.00,,CLR,0.00,VWS V14.01,2013-08-08 03:34:00,
2013-08-07 22:35:00,70.7,56.2,29.97,North,0,0.0,0.0,60,0.00,,CLR,0.00,VWS V14.01,2013-08-08 03:35:00,
2013-08-07 22:36:00,70.7,56.2,29.97,NNE,22,0.0,0.0,60,0.00,,CLR,0.00,VWS V14.01,2013-08-08 03:36:00,
2013-08-07 22:37:00,70.7,56.2,29.97,NNE,22,0.0,0.0,60,0.00,,CLR,0.00,VWS V14.01,2013-08-08 03:37:00,
2013-08-07 22:38:00,70.7,56.2,29.97,NNE,22,0.0,0.0,60,0.00,,CLR,0.00,VWS V14.01,2013-08-08 03:38:00,
2013-08-07 22:40:00,70.5,56.0,29.97,NNE,22,0.0,0.0,60,0.00,,CLR,0.00,VWS V14.01,2013-08-08 03:40:00,
2013-08-07 22:42:00,70.5,56.4,29.97,NNE,22,0.0,0.0,61,0.00,,CLR,0.00,VWS V14.01,2013-08-08 03:42:00,
2013-08-07 22:43:00,70.5,56.4,29.97,NNE,22,0.0,0.0,61,0.00,,CLR,0.00,VWS V14.01,2013-08-08 03:43:00,
2013-08-07 22:44:00,70.5,56.4,29.97,NNE,22,0.0,0.0,61,0.00,,CLR,0.00,VWS V14.01,2013-08-08 03:44:00,
2013-08-07 22:45:00,70.5,56.4,29.97,NNE,22,0.0,0.0,61,0.00,,CLR,0.00,VWS V14.01,2013-08-08 03:45:00,
2013-08-07 22:46:00,70.5,56.4,29.97,NNE,22,0.0,0.0,61,0.00,,CLR,0.00,VWS V14.01,2013-08-08 03:46:00,
2013-08-07 22:48:00,70.3,56.2,29.97,NNE,22,0.0,0.0,61,0.00,,CLR,0.00,VWS V14.01,2013-08-08 03:48:00,
2013-08-07 22:49:00,70.5,56.4,29.97,NNE,22,0.0,0.0,61,0.00,,CLR,0.00,VWS V14.01,2013-08-08 03:49:00,
2013-08-07 22:50:00,70.3,56.2,29.97,NNE,22,0.0,0.0,61,0.00,,CLR,0.00,VWS V14.01,2013-08-08 03:50:00,
2013-08-07 22:51:00,70.3,56.2,29.97,NNE,22,0.0,0.0,61,0.00,,CLR,0.00,VWS V14.01,2013-08-08 03:51:00,
2013-08-07 22:52:00,70.3,56.2,29.97,NNE,22,0.0,0.0,61,0.00,,CLR,0.00,VWS V14.01,2013-08-08 03:52:00,
2013-08-07 22:54:00,70.1,56.0,29.97,NNE,22,0.0,0.0,61,0.00,,CLR,0.00,VWS V14.01,2013-08-08 03:54:00,
2013-08-07 22:56:00,70.1,56.0,29.97,NNE,22,0.0,0.0,61,0.00,,CLR,0.00,VWS V14.01,2013-08-08 03:56:00,
2013-08-07 22:58:00,70.1,56.0,29.97,NNE,22,0.0,0.0,61,0.00,,CLR,0.00,VWS V14.01,2013-08-08 03:58:00,
2013-08-07 22:59:00,70.1,56.0,29.97,NNE,22,0.0,0.0,61,0.00,,CLR,0.00,VWS V14.01,2013-08-08 03:59:00,
2013-08-07 23:00:00,70.1,56.0,29.97,NNE,22,0.0,0.0,61,0.00,,CLR,0.00,VWS V14.01,2013-08-08 04:00:00,
2013-08-07 23:01:00,70.1,56.0,29.97,NNE,22,0.0,0.0,61,0.00,,CLR,0.00,VWS V14.01,2013-08-08 04:01:00,
2013-08-07 23:02:00,70.1,56.0,29.97,NNE,22,0.0,0.0,61,0.00,,CLR,0.00,VWS V14.01,2013-08-08 04:02:00,
2013-08-07 23:03:00,70.1,56.0,29.97,NNE,22,0.0,0.0,61,0.00,,CLR,0.00,VWS V14.01,2013-08-08 04:03:00,
2013-08-07 23:04:00,70.1,56.0,29.97,NNE,22,0.0,0.0,61,0.00,,CLR,0.00,VWS V14.01,2013-08-08 04:04:00,
2013-08-07 23:06:00,70.1,56.0,29.97,NNE,22,0.0,0.0,61,0.00,,CLR,0.00,VWS V14.01,2013-08-08 04:06:00,
2013-08-07 23:08:00,70.1,56.0,29.97,NNE,22,0.0,0.0,61,0.00,,CLR,0.00,VWS V14.01,2013-08-08 04:08:00,
2013-08-07 23:09:00,70.1,56.0,29.97,NNE,22,0.0,0.0,61,0.00,,CLR,0.00,VWS V14.01,2013-08-08 04:09:00,
2013-08-07 23:10:00,69.9,55.8,29.97,NNE,22,0.0,0.0,61,0.00,,CLR,0.00,VWS V14.01,2013-08-08 04:10:00,
2013-08-07 23:12:00,69.9,55.8,29.97,NNE,22,0.0,0.0,61,0.00,,CLR,0.00,VWS V14.01,2013-08-08 04:12:00,
2013-08-07 23:14:00,69.9,56.3,29.97,NNE,22,0.0,0.0,62,0.00,,CLR,0.00,VWS V14.01,2013-08-08 04:14:00,
2013-08-07 23:16:00,69.9,56.3,29.97,NNE,22,0.0,0.0,62,0.00,,CLR,0.00,VWS V14.01,2013-08-08 04:16:00,
2013-08-07 23:17:00,69.9,56.3,29.97,NNE,22,0.0,0.0,62,0.00,,CLR,0.00,VWS V14.01,2013-08-08 04:17:00,
2013-08-07 23:18:00,69.9,56.3,29.97,NNE,22,0.0,0.0,62,0.00,,CLR,0.00,VWS V14.01,2013-08-08 04:18:00,
2013-08-07 23:20:00,69.8,56.2,29.97,NNE,22,0.0,0.0,62,0.00,,CLR,0.00,VWS V14.01,2013-08-08 04:20:00,
2013-08-07 23:21:00,69.8,56.2,29.97,NNE,22,0.0,0.0,62,0.00,,CLR,0.00,VWS V14.01,2013-08-08 04:21:00,
2013-08-07 23:22:00,69.8,56.2,29.98,NNE,22,0.0,0.0,62,0.00,,CLR,0.00,VWS V14.01,2013-08-08 04:22:00,
2013-08-07 23:23:00,69.8,56.2,29.98,NNE,22,0.0,0.0,62,0.00,,CLR,0.00,VWS V14.01,2013-08-08 04:23:00,
2013-08-07 23:24:00,69.6,56.0,29.97,NNE,22,0.0,0.0,62,0.00,,CLR,0.00,VWS V14.01,2013-08-08 04:24:00,
2013-08-07 23:26:00,69.8,56.2,29.97,NNE,22,0.0,0.0,62,0.00,,CLR,0.00,VWS V14.01,2013-08-08 04:26:00,
2013-08-07 23:28:00,69.6,56.0,29.97,NNE,22,0.0,0.0,62,0.00,,CLR,0.00,VWS V14.01,2013-08-08 04:28:00,
2013-08-07 23:29:00,69.6,56.0,29.98,NNE,22,0.0,0.0,62,0.00,,CLR,0.00,VWS V14.01,2013-08-08 04:29:00,
2013-08-07 23:30:00,69.6,56.0,29.97,NNE,22,0.0,0.0,62,0.00,,CLR,0.00,VWS V14.01,2013-08-08 04:30:00,
2013-08-07 23:32:00,69.6,56.5,29.98,NNE,22,0.0,0.0,63,0.00,,CLR,0.00,VWS V14.01,2013-08-08 04:32:00,
2013-08-07 23:33:00,69.6,56.5,29.98,NNE,22,0.0,0.0,63,0.00,,CLR,0.00,VWS V14.01,2013-08-08 04:33:00,
2013-08-07 23:34:00,69.4,56.3,29.98,NNE,22,0.0,0.0,63,0.00,,CLR,0.00,VWS V14.01,2013-08-08 04:34:00,
2013-08-07 23:36:00,69.4,56.3,29.97,NNE,22,0.0,0.0,63,0.00,,CLR,0.00,VWS V14.01,2013-08-08 04:36:00,
2013-08-07 23:37:00,69.4,56.3,29.97,NNE,22,0.0,0.0,63,0.00,,CLR,0.00,VWS V14.01,2013-08-08 04:37:00,
2013-08-07 23:38:00,69.2,56.1,29.98,NNE,22,0.0,0.0,63,0.00,,CLR,0.00,VWS V14.01,2013-08-08 04:38:00,
2013-08-07 23:39:00,69.2,56.1,29.98,NNE,22,0.0,0.0,63,0.00,,CLR,0.00,VWS V14.01,2013-08-08 04:39:00,
2013-08-07 23:40:00,69.2,56.1,29.98,NNE,22,0.0,0.0,63,0.00,,CLR,0.00,VWS V14.01,2013-08-08 04:40:00,
2013-08-07 23:42:00,69.2,56.1,29.98,NNE,22,0.0,0.0,63,0.00,,CLR,0.00,VWS V14.01,2013-08-08 04:42:00,
2013-08-07 23:43:00,69.2,56.1,29.98,NNE,22,0.0,0.0,63,0.00,,CLR,0.00,VWS V14.01,2013-08-08 04:43:00,
2013-08-07 23:44:00,69.2,56.1,29.98,NNE,22,0.0,0.0,63,0.00,,CLR,0.00,VWS V14.01,2013-08-08 04:44:00,
2013-08-07 23:45:00,69.2,56.1,29.98,NNE,22,0.0,0.0,63,0.00,,CLR,0.00,VWS V14.01,2013-08-08 04:45:00,
2013-08-07 23:46:00,69.2,56.1,29.98,NNE,22,0.0,0.0,63,0.00,,CLR,0.00,VWS V14.01,2013-08-08 04:46:00,
2013-08-07 23:47:00,69.2,56.1,29.98,NNE,22,0.0,0.0,63,0.00,,CLR,0.00,VWS V14.01,2013-08-08 04:47:00,
2013-08-07 23:48:00,69.0,56.3,29.98,NNE,22,0.0,0.0,64,0.00,,CLR,0.00,VWS V14.01,2013-08-08 04:48:00,
2013-08-07 23:50:00,69.0,56.3,29.98,NNE,22,0.0,0.0,64,0.00,,CLR,0.00,VWS V14.01,2013-08-08 04:50:00,
2013-08-07 23:52:00,69.0,56.3,29.98,NNE,22,0.0,0.0,64,0.00,,CLR,0.00,VWS V14.01,2013-08-08 04:52:00,
2013-08-07 23:54:00,69.0,56.3,29.98,NNE,22,0.0,0.0,64,0.00,,CLR,0.00,VWS V14.01,2013-08-08 04:54:00,
2013-08-07 23:56:00,68.9,56.7,29.98,NNE,22,0.0,0.0,65,0.00,,CLR,0.00,VWS V14.01,2013-08-08 04:56:00,
2013-08-07 23:57:00,68.9,56.7,29.98,NNE,22,0.0,0.0,65,0.00,,CLR,0.00,VWS V14.01,2013-08-08 04:57:00,
2013-08-07 23:58:00,68.7,56.5,29.98,NNE,22,0.0,0.0,65,0.00,,CLR,0.00,VWS V14.01,2013-08-08 04:58:00,